<?xml version="1.0" encoding="UTF-8" standalone="no" ?>
<gpx xmlns="http://www.topografix.com/GPX/1/1" xmlns:xsi="http://www.w3.org/2001/XMLSchema-instance" xsi:schemaLocation="http://www.topografix.com/GPX/1/1 http://www.topografix.com/GPX/1/1/gpx.xsd" version="1.1" creator="VisuGPX - https://www.visugpx.com">
  <metadata>
    <name>La Gare (Perigneux)</name>
    <desc><![CDATA[fait le 20-11-2021 ]]></desc>
  </metadata>
  <trk>
    <name><![CDATA[2021-11-20 15:16:42]]></name>
    <extensions>
      <line xmlns="http://www.topografix.com/GPX/gpx_style/0/2">
        <color>0000FF</color>
        <width>4</width>
      </line>
    </extensions>
    <trkseg>
      <trkpt lat="45.46014" lon="4.15231">
        <ele>594.71</ele>
        <time>2021-11-20T08:47:51Z</time>
      </trkpt>
      <trkpt lat="45.46015" lon="4.15232">
        <ele>596.15</ele>
        <time>2021-11-20T08:48:26Z</time>
      </trkpt>
      <trkpt lat="45.46014" lon="4.15231">
        <ele>595.67</ele>
        <time>2021-11-20T08:48:55Z</time>
      </trkpt>
      <trkpt lat="45.46013" lon="4.15231">
        <ele>595.19</ele>
        <time>2021-11-20T08:49:22Z</time>
      </trkpt>
      <trkpt lat="45.46012" lon="4.15229">
        <ele>596.15</ele>
        <time>2021-11-20T08:49:50Z</time>
      </trkpt>
      <trkpt lat="45.46012" lon="4.15228">
        <ele>598.08</ele>
        <time>2021-11-20T08:50:19Z</time>
      </trkpt>
      <trkpt lat="45.46013" lon="4.15227">
        <ele>599.04</ele>
        <time>2021-11-20T08:50:45Z</time>
      </trkpt>
      <trkpt lat="45.46013" lon="4.15228">
        <ele>598.56</ele>
        <time>2021-11-20T08:51:04Z</time>
      </trkpt>
      <trkpt lat="45.46015" lon="4.15232">
        <ele>596.15</ele>
        <time>2021-11-20T08:51:24Z</time>
      </trkpt>
      <trkpt lat="45.46017" lon="4.15238">
        <ele>595.67</ele>
        <time>2021-11-20T08:51:41Z</time>
      </trkpt>
      <trkpt lat="45.46017" lon="4.1524">
        <ele>595.67</ele>
        <time>2021-11-20T08:52:08Z</time>
      </trkpt>
      <trkpt lat="45.46017" lon="4.15241">
        <ele>597.12</ele>
        <time>2021-11-20T08:52:31Z</time>
      </trkpt>
      <trkpt lat="45.46016" lon="4.1524">
        <ele>598.08</ele>
        <time>2021-11-20T08:52:55Z</time>
      </trkpt>
      <trkpt lat="45.46015" lon="4.15239">
        <ele>597.6</ele>
        <time>2021-11-20T08:53:21Z</time>
      </trkpt>
      <trkpt lat="45.46015" lon="4.15239">
        <ele>598.56</ele>
        <time>2021-11-20T08:53:51Z</time>
      </trkpt>
      <trkpt lat="45.46014" lon="4.15242">
        <ele>597.6</ele>
        <time>2021-11-20T08:54:17Z</time>
      </trkpt>
      <trkpt lat="45.46016" lon="4.15236">
        <ele>596.15</ele>
        <time>2021-11-20T08:54:51Z</time>
      </trkpt>
      <trkpt lat="45.46016" lon="4.15239">
        <ele>596.15</ele>
        <time>2021-11-20T08:55:17Z</time>
      </trkpt>
      <trkpt lat="45.46015" lon="4.1524">
        <ele>598.08</ele>
        <time>2021-11-20T08:55:37Z</time>
      </trkpt>
      <trkpt lat="45.46016" lon="4.15242">
        <ele>597.6</ele>
        <time>2021-11-20T08:56:02Z</time>
      </trkpt>
      <trkpt lat="45.46017" lon="4.15241">
        <ele>595.67</ele>
        <time>2021-11-20T08:56:24Z</time>
      </trkpt>
      <trkpt lat="45.46016" lon="4.15244">
        <ele>595.67</ele>
        <time>2021-11-20T08:56:45Z</time>
      </trkpt>
      <trkpt lat="45.46018" lon="4.15245">
        <ele>597.6</ele>
        <time>2021-11-20T08:57:28Z</time>
      </trkpt>
      <trkpt lat="45.46017" lon="4.15243">
        <ele>598.08</ele>
        <time>2021-11-20T08:57:57Z</time>
      </trkpt>
      <trkpt lat="45.46016" lon="4.1524">
        <ele>600</ele>
        <time>2021-11-20T08:58:25Z</time>
      </trkpt>
      <trkpt lat="45.46016" lon="4.15237">
        <ele>600.96</ele>
        <time>2021-11-20T08:58:53Z</time>
      </trkpt>
      <trkpt lat="45.46015" lon="4.15238">
        <ele>600.96</ele>
        <time>2021-11-20T08:59:13Z</time>
      </trkpt>
      <trkpt lat="45.46016" lon="4.15236">
        <ele>600.96</ele>
        <time>2021-11-20T08:59:32Z</time>
      </trkpt>
      <trkpt lat="45.46018" lon="4.15233">
        <ele>599.52</ele>
        <time>2021-11-20T08:59:52Z</time>
      </trkpt>
      <trkpt lat="45.46018" lon="4.15235">
        <ele>600.48</ele>
        <time>2021-11-20T09:00:14Z</time>
      </trkpt>
      <trkpt lat="45.46018" lon="4.15237">
        <ele>598.56</ele>
        <time>2021-11-20T09:00:34Z</time>
      </trkpt>
      <trkpt lat="45.46018" lon="4.15235">
        <ele>598.56</ele>
        <time>2021-11-20T09:00:53Z</time>
      </trkpt>
      <trkpt lat="45.46016" lon="4.15238">
        <ele>598.08</ele>
        <time>2021-11-20T09:01:23Z</time>
      </trkpt>
      <trkpt lat="45.46017" lon="4.15237">
        <ele>598.08</ele>
        <time>2021-11-20T09:01:50Z</time>
      </trkpt>
      <trkpt lat="45.46019" lon="4.15231">
        <ele>600</ele>
        <time>2021-11-20T09:02:23Z</time>
      </trkpt>
      <trkpt lat="45.46019" lon="4.15235">
        <ele>599.04</ele>
        <time>2021-11-20T09:02:48Z</time>
      </trkpt>
      <trkpt lat="45.4602" lon="4.15228">
        <ele>599.52</ele>
        <time>2021-11-20T09:03:23Z</time>
      </trkpt>
      <trkpt lat="45.46019" lon="4.15231">
        <ele>597.6</ele>
        <time>2021-11-20T09:03:54Z</time>
      </trkpt>
      <trkpt lat="45.46018" lon="4.1523">
        <ele>596.64</ele>
        <time>2021-11-20T09:04:29Z</time>
      </trkpt>
      <trkpt lat="45.46018" lon="4.15231">
        <ele>595.19</ele>
        <time>2021-11-20T09:04:56Z</time>
      </trkpt>
      <trkpt lat="45.46016" lon="4.15224">
        <ele>598.56</ele>
        <time>2021-11-20T09:05:14Z</time>
      </trkpt>
      <trkpt lat="45.46013" lon="4.15215">
        <ele>598.08</ele>
        <time>2021-11-20T09:05:30Z</time>
      </trkpt>
      <trkpt lat="45.46012" lon="4.15219">
        <ele>597.6</ele>
        <time>2021-11-20T09:05:53Z</time>
      </trkpt>
      <trkpt lat="45.4601" lon="4.15222">
        <ele>599.04</ele>
        <time>2021-11-20T09:06:16Z</time>
      </trkpt>
      <trkpt lat="45.46008" lon="4.15226">
        <ele>603.36</ele>
        <time>2021-11-20T09:06:49Z</time>
      </trkpt>
      <trkpt lat="45.46009" lon="4.15225">
        <ele>603.85</ele>
        <time>2021-11-20T09:07:20Z</time>
      </trkpt>
      <trkpt lat="45.46013" lon="4.15224">
        <ele>602.88</ele>
        <time>2021-11-20T09:08:06Z</time>
      </trkpt>
      <trkpt lat="45.46014" lon="4.15225">
        <ele>600.48</ele>
        <time>2021-11-20T09:08:51Z</time>
      </trkpt>
      <trkpt lat="45.46012" lon="4.15224">
        <ele>601.44</ele>
        <time>2021-11-20T09:09:25Z</time>
      </trkpt>
      <trkpt lat="45.46008" lon="4.15223">
        <ele>607.21</ele>
        <time>2021-11-20T09:10:04Z</time>
      </trkpt>
      <trkpt lat="45.46012" lon="4.15226">
        <ele>605.29</ele>
        <time>2021-11-20T09:10:41Z</time>
      </trkpt>
      <trkpt lat="45.46028" lon="4.15229">
        <ele>602.88</ele>
        <time>2021-11-20T09:10:52Z</time>
      </trkpt>
      <trkpt lat="45.46029" lon="4.15236">
        <ele>600.96</ele>
        <time>2021-11-20T09:11:08Z</time>
      </trkpt>
      <trkpt lat="45.46028" lon="4.15233">
        <ele>600.96</ele>
        <time>2021-11-20T09:11:38Z</time>
      </trkpt>
      <trkpt lat="45.46033" lon="4.15242">
        <ele>600.96</ele>
        <time>2021-11-20T09:11:45Z</time>
      </trkpt>
      <trkpt lat="45.46041" lon="4.15286">
        <ele>600</ele>
        <time>2021-11-20T09:12:07Z</time>
      </trkpt>
      <trkpt lat="45.46051" lon="4.15322">
        <ele>599.04</ele>
        <time>2021-11-20T09:12:27Z</time>
      </trkpt>
      <trkpt lat="45.46082" lon="4.15343">
        <ele>598.56</ele>
        <time>2021-11-20T09:12:50Z</time>
      </trkpt>
      <trkpt lat="45.46108" lon="4.15364">
        <ele>599.04</ele>
        <time>2021-11-20T09:13:12Z</time>
      </trkpt>
      <trkpt lat="45.46135" lon="4.15388">
        <ele>599.04</ele>
        <time>2021-11-20T09:13:34Z</time>
      </trkpt>
      <trkpt lat="45.46169" lon="4.15428">
        <ele>598.08</ele>
        <time>2021-11-20T09:14:01Z</time>
      </trkpt>
      <trkpt lat="45.46189" lon="4.15467">
        <ele>599.04</ele>
        <time>2021-11-20T09:14:26Z</time>
      </trkpt>
      <trkpt lat="45.46211" lon="4.15513">
        <ele>598.08</ele>
        <time>2021-11-20T09:14:53Z</time>
      </trkpt>
      <trkpt lat="45.46237" lon="4.15539">
        <ele>596.64</ele>
        <time>2021-11-20T09:15:15Z</time>
      </trkpt>
      <trkpt lat="45.46263" lon="4.15557">
        <ele>597.12</ele>
        <time>2021-11-20T09:15:37Z</time>
      </trkpt>
      <trkpt lat="45.46293" lon="4.15575">
        <ele>595.67</ele>
        <time>2021-11-20T09:16:01Z</time>
      </trkpt>
      <trkpt lat="45.46317" lon="4.1559">
        <ele>593.75</ele>
        <time>2021-11-20T09:16:20Z</time>
      </trkpt>
      <trkpt lat="45.46346" lon="4.1561">
        <ele>592.31</ele>
        <time>2021-11-20T09:16:43Z</time>
      </trkpt>
      <trkpt lat="45.46378" lon="4.15631">
        <ele>590.87</ele>
        <time>2021-11-20T09:17:09Z</time>
      </trkpt>
      <trkpt lat="45.46413" lon="4.15648">
        <ele>592.31</ele>
        <time>2021-11-20T09:17:35Z</time>
      </trkpt>
      <trkpt lat="45.46448" lon="4.1566">
        <ele>593.75</ele>
        <time>2021-11-20T09:17:56Z</time>
      </trkpt>
      <trkpt lat="45.46477" lon="4.15665">
        <ele>594.23</ele>
        <time>2021-11-20T09:18:17Z</time>
      </trkpt>
      <trkpt lat="45.46515" lon="4.15675">
        <ele>593.27</ele>
        <time>2021-11-20T09:18:43Z</time>
      </trkpt>
      <trkpt lat="45.46544" lon="4.15697">
        <ele>591.83</ele>
        <time>2021-11-20T09:19:07Z</time>
      </trkpt>
      <trkpt lat="45.46567" lon="4.15718">
        <ele>589.43</ele>
        <time>2021-11-20T09:19:29Z</time>
      </trkpt>
      <trkpt lat="45.46595" lon="4.1575">
        <ele>587.5</ele>
        <time>2021-11-20T09:19:54Z</time>
      </trkpt>
      <trkpt lat="45.46632" lon="4.15781">
        <ele>584.62</ele>
        <time>2021-11-20T09:20:22Z</time>
      </trkpt>
      <trkpt lat="45.4665" lon="4.1582">
        <ele>583.18</ele>
        <time>2021-11-20T09:20:45Z</time>
      </trkpt>
      <trkpt lat="45.46662" lon="4.15856">
        <ele>581.25</ele>
        <time>2021-11-20T09:21:10Z</time>
      </trkpt>
      <trkpt lat="45.46676" lon="4.15893">
        <ele>579.81</ele>
        <time>2021-11-20T09:21:26Z</time>
      </trkpt>
      <trkpt lat="45.46701" lon="4.15942">
        <ele>578.37</ele>
        <time>2021-11-20T09:21:53Z</time>
      </trkpt>
      <trkpt lat="45.46723" lon="4.15974">
        <ele>576.45</ele>
        <time>2021-11-20T09:22:14Z</time>
      </trkpt>
      <trkpt lat="45.46752" lon="4.15994">
        <ele>575.97</ele>
        <time>2021-11-20T09:22:36Z</time>
      </trkpt>
      <trkpt lat="45.46777" lon="4.16017">
        <ele>572.6</ele>
        <time>2021-11-20T09:22:58Z</time>
      </trkpt>
      <trkpt lat="45.46803" lon="4.16032">
        <ele>570.2</ele>
        <time>2021-11-20T09:23:15Z</time>
      </trkpt>
      <trkpt lat="45.46829" lon="4.1605">
        <ele>569.24</ele>
        <time>2021-11-20T09:23:35Z</time>
      </trkpt>
      <trkpt lat="45.46857" lon="4.16063">
        <ele>568.28</ele>
        <time>2021-11-20T09:23:56Z</time>
      </trkpt>
      <trkpt lat="45.46891" lon="4.16061">
        <ele>566.35</ele>
        <time>2021-11-20T09:24:20Z</time>
      </trkpt>
      <trkpt lat="45.46923" lon="4.16065">
        <ele>562.03</ele>
        <time>2021-11-20T09:24:39Z</time>
      </trkpt>
      <trkpt lat="45.46934" lon="4.1607">
        <ele>557.7</ele>
        <time>2021-11-20T09:24:48Z</time>
      </trkpt>
      <trkpt lat="45.46934" lon="4.16084">
        <ele>556.26</ele>
        <time>2021-11-20T09:24:54Z</time>
      </trkpt>
      <trkpt lat="45.46938" lon="4.16142">
        <ele>549.53</ele>
        <time>2021-11-20T09:25:20Z</time>
      </trkpt>
      <trkpt lat="45.46935" lon="4.16184">
        <ele>548.09</ele>
        <time>2021-11-20T09:25:41Z</time>
      </trkpt>
      <trkpt lat="45.4691" lon="4.16209">
        <ele>549.53</ele>
        <time>2021-11-20T09:26:01Z</time>
      </trkpt>
      <trkpt lat="45.46878" lon="4.16235">
        <ele>553.38</ele>
        <time>2021-11-20T09:26:27Z</time>
      </trkpt>
      <trkpt lat="45.46851" lon="4.16246">
        <ele>556.74</ele>
        <time>2021-11-20T09:26:46Z</time>
      </trkpt>
      <trkpt lat="45.46821" lon="4.16249">
        <ele>556.74</ele>
        <time>2021-11-20T09:27:07Z</time>
      </trkpt>
      <trkpt lat="45.46791" lon="4.16249">
        <ele>557.22</ele>
        <time>2021-11-20T09:27:27Z</time>
      </trkpt>
      <trkpt lat="45.46762" lon="4.1625">
        <ele>556.74</ele>
        <time>2021-11-20T09:27:47Z</time>
      </trkpt>
      <trkpt lat="45.46728" lon="4.16257">
        <ele>556.26</ele>
        <time>2021-11-20T09:28:10Z</time>
      </trkpt>
      <trkpt lat="45.46699" lon="4.16269">
        <ele>557.22</ele>
        <time>2021-11-20T09:28:30Z</time>
      </trkpt>
      <trkpt lat="45.46667" lon="4.1628">
        <ele>557.7</ele>
        <time>2021-11-20T09:28:52Z</time>
      </trkpt>
      <trkpt lat="45.46641" lon="4.16294">
        <ele>558.18</ele>
        <time>2021-11-20T09:29:10Z</time>
      </trkpt>
      <trkpt lat="45.46616" lon="4.16304">
        <ele>555.78</ele>
        <time>2021-11-20T09:29:29Z</time>
      </trkpt>
      <trkpt lat="45.46583" lon="4.1632">
        <ele>556.26</ele>
        <time>2021-11-20T09:29:53Z</time>
      </trkpt>
      <trkpt lat="45.46567" lon="4.16329">
        <ele>555.3</ele>
        <time>2021-11-20T09:30:06Z</time>
      </trkpt>
      <trkpt lat="45.46539" lon="4.16332">
        <ele>556.26</ele>
        <time>2021-11-20T09:30:23Z</time>
      </trkpt>
      <trkpt lat="45.46511" lon="4.1635">
        <ele>557.22</ele>
        <time>2021-11-20T09:30:44Z</time>
      </trkpt>
      <trkpt lat="45.46481" lon="4.16366">
        <ele>556.26</ele>
        <time>2021-11-20T09:31:06Z</time>
      </trkpt>
      <trkpt lat="45.46451" lon="4.16385">
        <ele>554.34</ele>
        <time>2021-11-20T09:31:29Z</time>
      </trkpt>
      <trkpt lat="45.46421" lon="4.16402">
        <ele>555.3</ele>
        <time>2021-11-20T09:31:50Z</time>
      </trkpt>
      <trkpt lat="45.46392" lon="4.16412">
        <ele>556.74</ele>
        <time>2021-11-20T09:32:12Z</time>
      </trkpt>
      <trkpt lat="45.46366" lon="4.1642">
        <ele>555.78</ele>
        <time>2021-11-20T09:32:30Z</time>
      </trkpt>
      <trkpt lat="45.46344" lon="4.16425">
        <ele>554.34</ele>
        <time>2021-11-20T09:32:47Z</time>
      </trkpt>
      <trkpt lat="45.46328" lon="4.16439">
        <ele>551.93</ele>
        <time>2021-11-20T09:33:04Z</time>
      </trkpt>
      <trkpt lat="45.46324" lon="4.16443">
        <ele>550.49</ele>
        <time>2021-11-20T09:33:08Z</time>
      </trkpt>
      <trkpt lat="45.463" lon="4.16452">
        <ele>546.17</ele>
        <time>2021-11-20T09:33:26Z</time>
      </trkpt>
      <trkpt lat="45.4629" lon="4.16464">
        <ele>543.28</ele>
        <time>2021-11-20T09:33:37Z</time>
      </trkpt>
      <trkpt lat="45.46274" lon="4.1649">
        <ele>536.55</ele>
        <time>2021-11-20T09:33:55Z</time>
      </trkpt>
      <trkpt lat="45.4626" lon="4.1652">
        <ele>530.79</ele>
        <time>2021-11-20T09:34:14Z</time>
      </trkpt>
      <trkpt lat="45.46247" lon="4.1655">
        <ele>523.58</ele>
        <time>2021-11-20T09:34:32Z</time>
      </trkpt>
      <trkpt lat="45.46232" lon="4.16577">
        <ele>516.37</ele>
        <time>2021-11-20T09:34:49Z</time>
      </trkpt>
      <trkpt lat="45.46219" lon="4.16589">
        <ele>512.52</ele>
        <time>2021-11-20T09:35:00Z</time>
      </trkpt>
      <trkpt lat="45.46198" lon="4.16592">
        <ele>504.35</ele>
        <time>2021-11-20T09:35:18Z</time>
      </trkpt>
      <trkpt lat="45.46185" lon="4.1662">
        <ele>506.75</ele>
        <time>2021-11-20T09:35:35Z</time>
      </trkpt>
      <trkpt lat="45.46174" lon="4.16649">
        <ele>506.27</ele>
        <time>2021-11-20T09:35:54Z</time>
      </trkpt>
      <trkpt lat="45.46167" lon="4.16677">
        <ele>503.87</ele>
        <time>2021-11-20T09:36:10Z</time>
      </trkpt>
      <trkpt lat="45.46171" lon="4.16712">
        <ele>497.14</ele>
        <time>2021-11-20T09:36:31Z</time>
      </trkpt>
      <trkpt lat="45.46171" lon="4.16743">
        <ele>491.37</ele>
        <time>2021-11-20T09:36:47Z</time>
      </trkpt>
      <trkpt lat="45.46176" lon="4.16773">
        <ele>488.49</ele>
        <time>2021-11-20T09:37:05Z</time>
      </trkpt>
      <trkpt lat="45.46184" lon="4.16792">
        <ele>485.6</ele>
        <time>2021-11-20T09:37:27Z</time>
      </trkpt>
      <trkpt lat="45.46176" lon="4.16818">
        <ele>481.76</ele>
        <time>2021-11-20T09:37:44Z</time>
      </trkpt>
      <trkpt lat="45.46158" lon="4.16849">
        <ele>476.95</ele>
        <time>2021-11-20T09:38:05Z</time>
      </trkpt>
      <trkpt lat="45.46144" lon="4.16874">
        <ele>472.14</ele>
        <time>2021-11-20T09:38:25Z</time>
      </trkpt>
      <trkpt lat="45.46131" lon="4.16889">
        <ele>468.78</ele>
        <time>2021-11-20T09:38:46Z</time>
      </trkpt>
      <trkpt lat="45.46127" lon="4.16891">
        <ele>469.26</ele>
        <time>2021-11-20T09:38:52Z</time>
      </trkpt>
      <trkpt lat="45.46106" lon="4.16895">
        <ele>474.55</ele>
        <time>2021-11-20T09:39:10Z</time>
      </trkpt>
      <trkpt lat="45.46109" lon="4.16927">
        <ele>480.32</ele>
        <time>2021-11-20T09:39:28Z</time>
      </trkpt>
      <trkpt lat="45.46131" lon="4.16943">
        <ele>492.81</ele>
        <time>2021-11-20T09:39:46Z</time>
      </trkpt>
      <trkpt lat="45.46144" lon="4.16959">
        <ele>495.22</ele>
        <time>2021-11-20T09:39:57Z</time>
      </trkpt>
      <trkpt lat="45.46153" lon="4.16979">
        <ele>495.7</ele>
        <time>2021-11-20T09:40:11Z</time>
      </trkpt>
      <trkpt lat="45.4615" lon="4.16997">
        <ele>492.81</ele>
        <time>2021-11-20T09:40:26Z</time>
      </trkpt>
      <trkpt lat="45.46134" lon="4.16993">
        <ele>496.18</ele>
        <time>2021-11-20T09:40:42Z</time>
      </trkpt>
      <trkpt lat="45.46134" lon="4.16995">
        <ele>496.18</ele>
        <time>2021-11-20T09:40:43Z</time>
      </trkpt>
      <trkpt lat="45.4613" lon="4.17009">
        <ele>497.62</ele>
        <time>2021-11-20T09:40:52Z</time>
      </trkpt>
      <trkpt lat="45.46109" lon="4.17026">
        <ele>502.91</ele>
        <time>2021-11-20T09:41:12Z</time>
      </trkpt>
      <trkpt lat="45.46096" lon="4.17008">
        <ele>513</ele>
        <time>2021-11-20T09:41:28Z</time>
      </trkpt>
      <trkpt lat="45.4608" lon="4.16991">
        <ele>519.25</ele>
        <time>2021-11-20T09:41:46Z</time>
      </trkpt>
      <trkpt lat="45.46058" lon="4.16977">
        <ele>521.17</ele>
        <time>2021-11-20T09:42:05Z</time>
      </trkpt>
      <trkpt lat="45.46035" lon="4.16964">
        <ele>523.58</ele>
        <time>2021-11-20T09:42:25Z</time>
      </trkpt>
      <trkpt lat="45.4603" lon="4.16962">
        <ele>524.54</ele>
        <time>2021-11-20T09:42:29Z</time>
      </trkpt>
      <trkpt lat="45.46004" lon="4.16964">
        <ele>527.9</ele>
        <time>2021-11-20T09:42:50Z</time>
      </trkpt>
      <trkpt lat="45.4598" lon="4.16964">
        <ele>530.79</ele>
        <time>2021-11-20T09:43:10Z</time>
      </trkpt>
      <trkpt lat="45.45969" lon="4.16964">
        <ele>532.71</ele>
        <time>2021-11-20T09:43:18Z</time>
      </trkpt>
      <trkpt lat="45.45949" lon="4.16968">
        <ele>537.99</ele>
        <time>2021-11-20T09:43:37Z</time>
      </trkpt>
      <trkpt lat="45.45928" lon="4.16977">
        <ele>542.8</ele>
        <time>2021-11-20T09:43:56Z</time>
      </trkpt>
      <trkpt lat="45.45919" lon="4.16984">
        <ele>546.17</ele>
        <time>2021-11-20T09:44:04Z</time>
      </trkpt>
      <trkpt lat="45.45891" lon="4.16989">
        <ele>550.97</ele>
        <time>2021-11-20T09:44:25Z</time>
      </trkpt>
      <trkpt lat="45.45866" lon="4.16996">
        <ele>554.34</ele>
        <time>2021-11-20T09:44:44Z</time>
      </trkpt>
      <trkpt lat="45.45838" lon="4.17003">
        <ele>557.7</ele>
        <time>2021-11-20T09:45:05Z</time>
      </trkpt>
      <trkpt lat="45.45809" lon="4.17006">
        <ele>561.07</ele>
        <time>2021-11-20T09:45:25Z</time>
      </trkpt>
      <trkpt lat="45.45774" lon="4.16995">
        <ele>563.95</ele>
        <time>2021-11-20T09:45:48Z</time>
      </trkpt>
      <trkpt lat="45.45741" lon="4.16981">
        <ele>565.87</ele>
        <time>2021-11-20T09:46:12Z</time>
      </trkpt>
      <trkpt lat="45.45716" lon="4.16964">
        <ele>565.87</ele>
        <time>2021-11-20T09:46:31Z</time>
      </trkpt>
      <trkpt lat="45.45693" lon="4.1695">
        <ele>566.35</ele>
        <time>2021-11-20T09:46:48Z</time>
      </trkpt>
      <trkpt lat="45.45665" lon="4.16934">
        <ele>565.87</ele>
        <time>2021-11-20T09:47:09Z</time>
      </trkpt>
      <trkpt lat="45.45634" lon="4.16919">
        <ele>564.91</ele>
        <time>2021-11-20T09:47:31Z</time>
      </trkpt>
      <trkpt lat="45.4561" lon="4.16909">
        <ele>566.83</ele>
        <time>2021-11-20T09:47:50Z</time>
      </trkpt>
      <trkpt lat="45.45583" lon="4.16892">
        <ele>566.83</ele>
        <time>2021-11-20T09:48:09Z</time>
      </trkpt>
      <trkpt lat="45.45551" lon="4.16868">
        <ele>567.8</ele>
        <time>2021-11-20T09:48:31Z</time>
      </trkpt>
      <trkpt lat="45.4552" lon="4.16844">
        <ele>569.24</ele>
        <time>2021-11-20T09:48:54Z</time>
      </trkpt>
      <trkpt lat="45.45498" lon="4.16842">
        <ele>565.87</ele>
        <time>2021-11-20T09:49:13Z</time>
      </trkpt>
      <trkpt lat="45.45474" lon="4.16849">
        <ele>563.47</ele>
        <time>2021-11-20T09:49:30Z</time>
      </trkpt>
      <trkpt lat="45.45447" lon="4.16852">
        <ele>562.51</ele>
        <time>2021-11-20T09:49:47Z</time>
      </trkpt>
      <trkpt lat="45.45437" lon="4.16854">
        <ele>561.55</ele>
        <time>2021-11-20T09:49:54Z</time>
      </trkpt>
      <trkpt lat="45.45402" lon="4.16851">
        <ele>561.55</ele>
        <time>2021-11-20T09:50:15Z</time>
      </trkpt>
      <trkpt lat="45.45373" lon="4.1685">
        <ele>563.47</ele>
        <time>2021-11-20T09:50:35Z</time>
      </trkpt>
      <trkpt lat="45.45344" lon="4.16848">
        <ele>565.87</ele>
        <time>2021-11-20T09:50:58Z</time>
      </trkpt>
      <trkpt lat="45.45314" lon="4.16859">
        <ele>567.32</ele>
        <time>2021-11-20T09:51:21Z</time>
      </trkpt>
      <trkpt lat="45.45283" lon="4.16861">
        <ele>566.83</ele>
        <time>2021-11-20T09:51:41Z</time>
      </trkpt>
      <trkpt lat="45.45257" lon="4.16871">
        <ele>568.76</ele>
        <time>2021-11-20T09:52:00Z</time>
      </trkpt>
      <trkpt lat="45.45233" lon="4.16879">
        <ele>570.2</ele>
        <time>2021-11-20T09:52:20Z</time>
      </trkpt>
      <trkpt lat="45.45211" lon="4.16873">
        <ele>569.72</ele>
        <time>2021-11-20T09:52:38Z</time>
      </trkpt>
      <trkpt lat="45.45189" lon="4.16874">
        <ele>563.95</ele>
        <time>2021-11-20T09:52:59Z</time>
      </trkpt>
      <trkpt lat="45.45179" lon="4.1687">
        <ele>556.74</ele>
        <time>2021-11-20T09:53:18Z</time>
      </trkpt>
      <trkpt lat="45.45149" lon="4.1688">
        <ele>557.7</ele>
        <time>2021-11-20T09:53:39Z</time>
      </trkpt>
      <trkpt lat="45.45117" lon="4.16885">
        <ele>559.62</ele>
        <time>2021-11-20T09:54:04Z</time>
      </trkpt>
      <trkpt lat="45.45094" lon="4.16907">
        <ele>557.7</ele>
        <time>2021-11-20T09:54:27Z</time>
      </trkpt>
      <trkpt lat="45.4506" lon="4.16896">
        <ele>554.82</ele>
        <time>2021-11-20T09:54:50Z</time>
      </trkpt>
      <trkpt lat="45.45045" lon="4.1688">
        <ele>563.47</ele>
        <time>2021-11-20T09:55:04Z</time>
      </trkpt>
      <trkpt lat="45.45026" lon="4.16866">
        <ele>568.76</ele>
        <time>2021-11-20T09:55:21Z</time>
      </trkpt>
      <trkpt lat="45.45008" lon="4.16859">
        <ele>572.12</ele>
        <time>2021-11-20T09:55:38Z</time>
      </trkpt>
      <trkpt lat="45.4498" lon="4.16849">
        <ele>575.01</ele>
        <time>2021-11-20T09:55:59Z</time>
      </trkpt>
      <trkpt lat="45.44954" lon="4.1683">
        <ele>579.33</ele>
        <time>2021-11-20T09:56:21Z</time>
      </trkpt>
      <trkpt lat="45.4493" lon="4.16799">
        <ele>580.77</ele>
        <time>2021-11-20T09:56:40Z</time>
      </trkpt>
      <trkpt lat="45.44904" lon="4.16798">
        <ele>581.25</ele>
        <time>2021-11-20T09:56:58Z</time>
      </trkpt>
      <trkpt lat="45.44881" lon="4.16787">
        <ele>580.29</ele>
        <time>2021-11-20T09:57:15Z</time>
      </trkpt>
      <trkpt lat="45.44848" lon="4.1677">
        <ele>581.73</ele>
        <time>2021-11-20T09:57:40Z</time>
      </trkpt>
      <trkpt lat="45.44831" lon="4.16752">
        <ele>583.66</ele>
        <time>2021-11-20T09:57:56Z</time>
      </trkpt>
      <trkpt lat="45.44812" lon="4.16738">
        <ele>588.95</ele>
        <time>2021-11-20T09:58:13Z</time>
      </trkpt>
      <trkpt lat="45.44789" lon="4.16723">
        <ele>594.23</ele>
        <time>2021-11-20T09:58:32Z</time>
      </trkpt>
      <trkpt lat="45.44773" lon="4.16724">
        <ele>597.12</ele>
        <time>2021-11-20T09:58:47Z</time>
      </trkpt>
      <trkpt lat="45.4475" lon="4.16712">
        <ele>598.08</ele>
        <time>2021-11-20T09:59:05Z</time>
      </trkpt>
      <trkpt lat="45.44726" lon="4.1671">
        <ele>598.08</ele>
        <time>2021-11-20T09:59:23Z</time>
      </trkpt>
      <trkpt lat="45.44702" lon="4.16702">
        <ele>599.04</ele>
        <time>2021-11-20T09:59:41Z</time>
      </trkpt>
      <trkpt lat="45.4468" lon="4.16687">
        <ele>597.6</ele>
        <time>2021-11-20T09:59:59Z</time>
      </trkpt>
      <trkpt lat="45.44659" lon="4.16691">
        <ele>597.12</ele>
        <time>2021-11-20T10:00:17Z</time>
      </trkpt>
      <trkpt lat="45.44637" lon="4.16712">
        <ele>593.75</ele>
        <time>2021-11-20T10:00:34Z</time>
      </trkpt>
      <trkpt lat="45.44612" lon="4.16708">
        <ele>589.91</ele>
        <time>2021-11-20T10:00:53Z</time>
      </trkpt>
      <trkpt lat="45.44585" lon="4.16713">
        <ele>590.87</ele>
        <time>2021-11-20T10:01:14Z</time>
      </trkpt>
      <trkpt lat="45.44562" lon="4.16718">
        <ele>592.79</ele>
        <time>2021-11-20T10:01:33Z</time>
      </trkpt>
      <trkpt lat="45.44539" lon="4.16727">
        <ele>598.56</ele>
        <time>2021-11-20T10:01:51Z</time>
      </trkpt>
      <trkpt lat="45.4452" lon="4.16732">
        <ele>601.44</ele>
        <time>2021-11-20T10:02:07Z</time>
      </trkpt>
      <trkpt lat="45.44494" lon="4.16743">
        <ele>600</ele>
        <time>2021-11-20T10:02:25Z</time>
      </trkpt>
      <trkpt lat="45.44472" lon="4.16757">
        <ele>599.04</ele>
        <time>2021-11-20T10:02:41Z</time>
      </trkpt>
      <trkpt lat="45.44445" lon="4.16771">
        <ele>598.56</ele>
        <time>2021-11-20T10:03:01Z</time>
      </trkpt>
      <trkpt lat="45.44427" lon="4.16773">
        <ele>598.56</ele>
        <time>2021-11-20T10:03:17Z</time>
      </trkpt>
      <trkpt lat="45.44406" lon="4.16778">
        <ele>598.56</ele>
        <time>2021-11-20T10:03:35Z</time>
      </trkpt>
      <trkpt lat="45.44387" lon="4.16789">
        <ele>600</ele>
        <time>2021-11-20T10:03:53Z</time>
      </trkpt>
      <trkpt lat="45.44388" lon="4.16789">
        <ele>599.52</ele>
        <time>2021-11-20T10:03:54Z</time>
      </trkpt>
      <trkpt lat="45.444" lon="4.16821">
        <ele>599.52</ele>
        <time>2021-11-20T10:04:12Z</time>
      </trkpt>
      <trkpt lat="45.44409" lon="4.16837">
        <ele>601.44</ele>
        <time>2021-11-20T10:04:19Z</time>
      </trkpt>
      <trkpt lat="45.44399" lon="4.1684">
        <ele>605.29</ele>
        <time>2021-11-20T10:04:30Z</time>
      </trkpt>
      <trkpt lat="45.44383" lon="4.16819">
        <ele>607.21</ele>
        <time>2021-11-20T10:04:47Z</time>
      </trkpt>
      <trkpt lat="45.4436" lon="4.16788">
        <ele>607.69</ele>
        <time>2021-11-20T10:05:09Z</time>
      </trkpt>
      <trkpt lat="45.44342" lon="4.16753">
        <ele>609.61</ele>
        <time>2021-11-20T10:05:30Z</time>
      </trkpt>
      <trkpt lat="45.44332" lon="4.16716">
        <ele>610.57</ele>
        <time>2021-11-20T10:05:49Z</time>
      </trkpt>
      <trkpt lat="45.44321" lon="4.16681">
        <ele>610.57</ele>
        <time>2021-11-20T10:06:08Z</time>
      </trkpt>
      <trkpt lat="45.44308" lon="4.16651">
        <ele>613.94</ele>
        <time>2021-11-20T10:06:28Z</time>
      </trkpt>
      <trkpt lat="45.44302" lon="4.16656">
        <ele>613.46</ele>
        <time>2021-11-20T10:06:36Z</time>
      </trkpt>
      <trkpt lat="45.44309" lon="4.1669">
        <ele>613.94</ele>
        <time>2021-11-20T10:06:54Z</time>
      </trkpt>
      <trkpt lat="45.44309" lon="4.16703">
        <ele>613.46</ele>
        <time>2021-11-20T10:07:01Z</time>
      </trkpt>
      <trkpt lat="45.44304" lon="4.16718">
        <ele>617.3</ele>
        <time>2021-11-20T10:07:20Z</time>
      </trkpt>
      <trkpt lat="45.4429" lon="4.16696">
        <ele>623.55</ele>
        <time>2021-11-20T10:07:38Z</time>
      </trkpt>
      <trkpt lat="45.44275" lon="4.16664">
        <ele>625.96</ele>
        <time>2021-11-20T10:07:58Z</time>
      </trkpt>
      <trkpt lat="45.44266" lon="4.16641">
        <ele>629.8</ele>
        <time>2021-11-20T10:08:12Z</time>
      </trkpt>
      <trkpt lat="45.44252" lon="4.16612">
        <ele>633.65</ele>
        <time>2021-11-20T10:08:30Z</time>
      </trkpt>
      <trkpt lat="45.44237" lon="4.16586">
        <ele>635.57</ele>
        <time>2021-11-20T10:08:45Z</time>
      </trkpt>
      <trkpt lat="45.44217" lon="4.16557">
        <ele>635.57</ele>
        <time>2021-11-20T10:09:06Z</time>
      </trkpt>
      <trkpt lat="45.44195" lon="4.16531">
        <ele>634.61</ele>
        <time>2021-11-20T10:09:27Z</time>
      </trkpt>
      <trkpt lat="45.44174" lon="4.16506">
        <ele>634.61</ele>
        <time>2021-11-20T10:09:46Z</time>
      </trkpt>
      <trkpt lat="45.44156" lon="4.16488">
        <ele>635.09</ele>
        <time>2021-11-20T10:10:03Z</time>
      </trkpt>
      <trkpt lat="45.4413" lon="4.16468">
        <ele>636.53</ele>
        <time>2021-11-20T10:10:24Z</time>
      </trkpt>
      <trkpt lat="45.44128" lon="4.16466">
        <ele>636.53</ele>
        <time>2021-11-20T10:10:26Z</time>
      </trkpt>
      <trkpt lat="45.44119" lon="4.16472">
        <ele>637.01</ele>
        <time>2021-11-20T10:10:34Z</time>
      </trkpt>
      <trkpt lat="45.441" lon="4.16499">
        <ele>635.57</ele>
        <time>2021-11-20T10:10:52Z</time>
      </trkpt>
      <trkpt lat="45.44079" lon="4.16521">
        <ele>633.17</ele>
        <time>2021-11-20T10:11:10Z</time>
      </trkpt>
      <trkpt lat="45.44054" lon="4.16536">
        <ele>629.32</ele>
        <time>2021-11-20T10:11:28Z</time>
      </trkpt>
      <trkpt lat="45.4403" lon="4.16549">
        <ele>623.55</ele>
        <time>2021-11-20T10:11:46Z</time>
      </trkpt>
      <trkpt lat="45.44007" lon="4.16563">
        <ele>618.26</ele>
        <time>2021-11-20T10:12:04Z</time>
      </trkpt>
      <trkpt lat="45.4399" lon="4.16565">
        <ele>613.94</ele>
        <time>2021-11-20T10:12:19Z</time>
      </trkpt>
      <trkpt lat="45.43967" lon="4.1658">
        <ele>613.94</ele>
        <time>2021-11-20T10:12:35Z</time>
      </trkpt>
      <trkpt lat="45.43949" lon="4.16601">
        <ele>616.82</ele>
        <time>2021-11-20T10:12:51Z</time>
      </trkpt>
      <trkpt lat="45.43935" lon="4.16627">
        <ele>610.09</ele>
        <time>2021-11-20T10:13:07Z</time>
      </trkpt>
      <trkpt lat="45.43914" lon="4.16638">
        <ele>604.33</ele>
        <time>2021-11-20T10:13:24Z</time>
      </trkpt>
      <trkpt lat="45.43893" lon="4.16634">
        <ele>602.88</ele>
        <time>2021-11-20T10:13:40Z</time>
      </trkpt>
      <trkpt lat="45.43864" lon="4.16628">
        <ele>607.69</ele>
        <time>2021-11-20T10:13:56Z</time>
      </trkpt>
      <trkpt lat="45.43842" lon="4.16613">
        <ele>607.69</ele>
        <time>2021-11-20T10:14:13Z</time>
      </trkpt>
      <trkpt lat="45.43821" lon="4.1661">
        <ele>608.65</ele>
        <time>2021-11-20T10:14:27Z</time>
      </trkpt>
      <trkpt lat="45.438" lon="4.16617">
        <ele>609.61</ele>
        <time>2021-11-20T10:14:44Z</time>
      </trkpt>
      <trkpt lat="45.43777" lon="4.16618">
        <ele>612.98</ele>
        <time>2021-11-20T10:15:00Z</time>
      </trkpt>
      <trkpt lat="45.43776" lon="4.16618">
        <ele>612.98</ele>
        <time>2021-11-20T10:15:01Z</time>
      </trkpt>
      <trkpt lat="45.43761" lon="4.1661">
        <ele>612.98</ele>
        <time>2021-11-20T10:15:17Z</time>
      </trkpt>
      <trkpt lat="45.4375" lon="4.16611">
        <ele>612.98</ele>
        <time>2021-11-20T10:15:25Z</time>
      </trkpt>
      <trkpt lat="45.4373" lon="4.16621">
        <ele>618.26</ele>
        <time>2021-11-20T10:15:38Z</time>
      </trkpt>
      <trkpt lat="45.43711" lon="4.16654">
        <ele>629.8</ele>
        <time>2021-11-20T10:15:53Z</time>
      </trkpt>
      <trkpt lat="45.43711" lon="4.16658">
        <ele>630.28</ele>
        <time>2021-11-20T10:15:56Z</time>
      </trkpt>
      <trkpt lat="45.43712" lon="4.16682">
        <ele>634.13</ele>
        <time>2021-11-20T10:16:13Z</time>
      </trkpt>
      <trkpt lat="45.43717" lon="4.16713">
        <ele>636.05</ele>
        <time>2021-11-20T10:16:27Z</time>
      </trkpt>
      <trkpt lat="45.4372" lon="4.16748">
        <ele>638.93</ele>
        <time>2021-11-20T10:16:43Z</time>
      </trkpt>
      <trkpt lat="45.43719" lon="4.16784">
        <ele>642.3</ele>
        <time>2021-11-20T10:16:58Z</time>
      </trkpt>
      <trkpt lat="45.43713" lon="4.16825">
        <ele>641.82</ele>
        <time>2021-11-20T10:17:15Z</time>
      </trkpt>
      <trkpt lat="45.43703" lon="4.16838">
        <ele>639.41</ele>
        <time>2021-11-20T10:17:29Z</time>
      </trkpt>
      <trkpt lat="45.43699" lon="4.16854">
        <ele>637.01</ele>
        <time>2021-11-20T10:17:40Z</time>
      </trkpt>
      <trkpt lat="45.43689" lon="4.16896">
        <ele>641.82</ele>
        <time>2021-11-20T10:17:52Z</time>
      </trkpt>
      <trkpt lat="45.43682" lon="4.16899">
        <ele>640.38</ele>
        <time>2021-11-20T10:17:58Z</time>
      </trkpt>
      <trkpt lat="45.43664" lon="4.16897">
        <ele>639.89</ele>
        <time>2021-11-20T10:18:14Z</time>
      </trkpt>
      <trkpt lat="45.43659" lon="4.16876">
        <ele>640.38</ele>
        <time>2021-11-20T10:18:30Z</time>
      </trkpt>
      <trkpt lat="45.43652" lon="4.16843">
        <ele>643.74</ele>
        <time>2021-11-20T10:18:47Z</time>
      </trkpt>
      <trkpt lat="45.43648" lon="4.16814">
        <ele>650.95</ele>
        <time>2021-11-20T10:19:04Z</time>
      </trkpt>
      <trkpt lat="45.43646" lon="4.1681">
        <ele>652.39</ele>
        <time>2021-11-20T10:19:07Z</time>
      </trkpt>
      <trkpt lat="45.43639" lon="4.16802">
        <ele>656.24</ele>
        <time>2021-11-20T10:19:14Z</time>
      </trkpt>
      <trkpt lat="45.43627" lon="4.16804">
        <ele>659.12</ele>
        <time>2021-11-20T10:19:23Z</time>
      </trkpt>
      <trkpt lat="45.43621" lon="4.16807">
        <ele>659.12</ele>
        <time>2021-11-20T10:19:41Z</time>
      </trkpt>
      <trkpt lat="45.43617" lon="4.16803">
        <ele>658.16</ele>
        <time>2021-11-20T10:20:16Z</time>
      </trkpt>
      <trkpt lat="45.43592" lon="4.16808">
        <ele>663.93</ele>
        <time>2021-11-20T10:20:31Z</time>
      </trkpt>
      <trkpt lat="45.43569" lon="4.1681">
        <ele>664.89</ele>
        <time>2021-11-20T10:20:47Z</time>
      </trkpt>
      <trkpt lat="45.43557" lon="4.16808">
        <ele>665.37</ele>
        <time>2021-11-20T10:20:55Z</time>
      </trkpt>
      <trkpt lat="45.43542" lon="4.16805">
        <ele>665.85</ele>
        <time>2021-11-20T10:21:09Z</time>
      </trkpt>
      <trkpt lat="45.43525" lon="4.16792">
        <ele>665.85</ele>
        <time>2021-11-20T10:21:26Z</time>
      </trkpt>
      <trkpt lat="45.4351" lon="4.16778">
        <ele>665.37</ele>
        <time>2021-11-20T10:21:41Z</time>
      </trkpt>
      <trkpt lat="45.43495" lon="4.16762">
        <ele>666.33</ele>
        <time>2021-11-20T10:21:53Z</time>
      </trkpt>
      <trkpt lat="45.4348" lon="4.16739">
        <ele>668.73</ele>
        <time>2021-11-20T10:22:08Z</time>
      </trkpt>
      <trkpt lat="45.43464" lon="4.16703">
        <ele>675.46</ele>
        <time>2021-11-20T10:22:25Z</time>
      </trkpt>
      <trkpt lat="45.43463" lon="4.16699">
        <ele>675.94</ele>
        <time>2021-11-20T10:22:29Z</time>
      </trkpt>
      <trkpt lat="45.43459" lon="4.16679">
        <ele>678.83</ele>
        <time>2021-11-20T10:22:41Z</time>
      </trkpt>
      <trkpt lat="45.4345" lon="4.16651">
        <ele>680.75</ele>
        <time>2021-11-20T10:22:57Z</time>
      </trkpt>
      <trkpt lat="45.4344" lon="4.16621">
        <ele>682.19</ele>
        <time>2021-11-20T10:23:14Z</time>
      </trkpt>
      <trkpt lat="45.43434" lon="4.16599">
        <ele>684.12</ele>
        <time>2021-11-20T10:23:28Z</time>
      </trkpt>
      <trkpt lat="45.43423" lon="4.16577">
        <ele>686.52</ele>
        <time>2021-11-20T10:23:42Z</time>
      </trkpt>
      <trkpt lat="45.43412" lon="4.16558">
        <ele>689.88</ele>
        <time>2021-11-20T10:23:53Z</time>
      </trkpt>
      <trkpt lat="45.43402" lon="4.16536">
        <ele>688.92</ele>
        <time>2021-11-20T10:24:07Z</time>
      </trkpt>
      <trkpt lat="45.43401" lon="4.16534">
        <ele>689.4</ele>
        <time>2021-11-20T10:24:08Z</time>
      </trkpt>
      <trkpt lat="45.43398" lon="4.16519">
        <ele>688.44</ele>
        <time>2021-11-20T10:24:16Z</time>
      </trkpt>
      <trkpt lat="45.43395" lon="4.16514">
        <ele>688.44</ele>
        <time>2021-11-20T10:24:20Z</time>
      </trkpt>
      <trkpt lat="45.43389" lon="4.16485">
        <ele>687</ele>
        <time>2021-11-20T10:24:35Z</time>
      </trkpt>
      <trkpt lat="45.43385" lon="4.16455">
        <ele>687.96</ele>
        <time>2021-11-20T10:24:50Z</time>
      </trkpt>
      <trkpt lat="45.43384" lon="4.16419">
        <ele>690.36</ele>
        <time>2021-11-20T10:25:07Z</time>
      </trkpt>
      <trkpt lat="45.43385" lon="4.16387">
        <ele>691.33</ele>
        <time>2021-11-20T10:25:23Z</time>
      </trkpt>
      <trkpt lat="45.43386" lon="4.16363">
        <ele>691.81</ele>
        <time>2021-11-20T10:25:36Z</time>
      </trkpt>
      <trkpt lat="45.43387" lon="4.16333">
        <ele>691.33</ele>
        <time>2021-11-20T10:25:51Z</time>
      </trkpt>
      <trkpt lat="45.43381" lon="4.16305">
        <ele>692.29</ele>
        <time>2021-11-20T10:26:05Z</time>
      </trkpt>
      <trkpt lat="45.43377" lon="4.16265">
        <ele>692.77</ele>
        <time>2021-11-20T10:26:23Z</time>
      </trkpt>
      <trkpt lat="45.43375" lon="4.16232">
        <ele>692.29</ele>
        <time>2021-11-20T10:26:39Z</time>
      </trkpt>
      <trkpt lat="45.43371" lon="4.16193">
        <ele>691.81</ele>
        <time>2021-11-20T10:26:57Z</time>
      </trkpt>
      <trkpt lat="45.43371" lon="4.16164">
        <ele>689.4</ele>
        <time>2021-11-20T10:27:12Z</time>
      </trkpt>
      <trkpt lat="45.43361" lon="4.16144">
        <ele>687.48</ele>
        <time>2021-11-20T10:27:27Z</time>
      </trkpt>
      <trkpt lat="45.43335" lon="4.16148">
        <ele>688.44</ele>
        <time>2021-11-20T10:27:45Z</time>
      </trkpt>
      <trkpt lat="45.43309" lon="4.16159">
        <ele>690.36</ele>
        <time>2021-11-20T10:28:02Z</time>
      </trkpt>
      <trkpt lat="45.43285" lon="4.16168">
        <ele>692.77</ele>
        <time>2021-11-20T10:28:19Z</time>
      </trkpt>
      <trkpt lat="45.43268" lon="4.16171">
        <ele>692.77</ele>
        <time>2021-11-20T10:28:32Z</time>
      </trkpt>
      <trkpt lat="45.43247" lon="4.16177">
        <ele>691.33</ele>
        <time>2021-11-20T10:28:46Z</time>
      </trkpt>
      <trkpt lat="45.43224" lon="4.16184">
        <ele>690.36</ele>
        <time>2021-11-20T10:29:04Z</time>
      </trkpt>
      <trkpt lat="45.43202" lon="4.16191">
        <ele>686.04</ele>
        <time>2021-11-20T10:29:21Z</time>
      </trkpt>
      <trkpt lat="45.43185" lon="4.16191">
        <ele>683.63</ele>
        <time>2021-11-20T10:29:33Z</time>
      </trkpt>
      <trkpt lat="45.43164" lon="4.16203">
        <ele>680.27</ele>
        <time>2021-11-20T10:29:50Z</time>
      </trkpt>
      <trkpt lat="45.43141" lon="4.16204">
        <ele>678.35</ele>
        <time>2021-11-20T10:30:06Z</time>
      </trkpt>
      <trkpt lat="45.4312" lon="4.1621">
        <ele>677.87</ele>
        <time>2021-11-20T10:30:21Z</time>
      </trkpt>
      <trkpt lat="45.43093" lon="4.16219">
        <ele>677.87</ele>
        <time>2021-11-20T10:30:41Z</time>
      </trkpt>
      <trkpt lat="45.43075" lon="4.16218">
        <ele>676.42</ele>
        <time>2021-11-20T10:30:57Z</time>
      </trkpt>
      <trkpt lat="45.43053" lon="4.16221">
        <ele>676.42</ele>
        <time>2021-11-20T10:31:13Z</time>
      </trkpt>
      <trkpt lat="45.4303" lon="4.16222">
        <ele>676.42</ele>
        <time>2021-11-20T10:31:30Z</time>
      </trkpt>
      <trkpt lat="45.43012" lon="4.16213">
        <ele>676.42</ele>
        <time>2021-11-20T10:31:45Z</time>
      </trkpt>
      <trkpt lat="45.42987" lon="4.16186">
        <ele>677.87</ele>
        <time>2021-11-20T10:32:07Z</time>
      </trkpt>
      <trkpt lat="45.42971" lon="4.16173">
        <ele>677.39</ele>
        <time>2021-11-20T10:32:21Z</time>
      </trkpt>
      <trkpt lat="45.42945" lon="4.16168">
        <ele>676.91</ele>
        <time>2021-11-20T10:32:41Z</time>
      </trkpt>
      <trkpt lat="45.42918" lon="4.16176">
        <ele>676.91</ele>
        <time>2021-11-20T10:33:00Z</time>
      </trkpt>
      <trkpt lat="45.42891" lon="4.1618">
        <ele>678.35</ele>
        <time>2021-11-20T10:33:19Z</time>
      </trkpt>
      <trkpt lat="45.4287" lon="4.16175">
        <ele>677.39</ele>
        <time>2021-11-20T10:33:34Z</time>
      </trkpt>
      <trkpt lat="45.42866" lon="4.16173">
        <ele>676.91</ele>
        <time>2021-11-20T10:33:37Z</time>
      </trkpt>
      <trkpt lat="45.42865" lon="4.16172">
        <ele>676.91</ele>
        <time>2021-11-20T10:33:38Z</time>
      </trkpt>
      <trkpt lat="45.4284" lon="4.16155">
        <ele>672.58</ele>
        <time>2021-11-20T10:33:57Z</time>
      </trkpt>
      <trkpt lat="45.42822" lon="4.16142">
        <ele>673.06</ele>
        <time>2021-11-20T10:34:12Z</time>
      </trkpt>
      <trkpt lat="45.42801" lon="4.16129">
        <ele>674.5</ele>
        <time>2021-11-20T10:34:29Z</time>
      </trkpt>
      <trkpt lat="45.42779" lon="4.16116">
        <ele>673.06</ele>
        <time>2021-11-20T10:34:46Z</time>
      </trkpt>
      <trkpt lat="45.42758" lon="4.16103">
        <ele>668.73</ele>
        <time>2021-11-20T10:35:03Z</time>
      </trkpt>
      <trkpt lat="45.42734" lon="4.16091">
        <ele>668.25</ele>
        <time>2021-11-20T10:35:20Z</time>
      </trkpt>
      <trkpt lat="45.42714" lon="4.16083">
        <ele>669.22</ele>
        <time>2021-11-20T10:35:35Z</time>
      </trkpt>
      <trkpt lat="45.42713" lon="4.16083">
        <ele>669.22</ele>
        <time>2021-11-20T10:35:36Z</time>
      </trkpt>
      <trkpt lat="45.42683" lon="4.16074">
        <ele>670.18</ele>
        <time>2021-11-20T10:35:56Z</time>
      </trkpt>
      <trkpt lat="45.42657" lon="4.16065">
        <ele>671.14</ele>
        <time>2021-11-20T10:36:13Z</time>
      </trkpt>
      <trkpt lat="45.4265" lon="4.16065">
        <ele>672.58</ele>
        <time>2021-11-20T10:36:18Z</time>
      </trkpt>
      <trkpt lat="45.42639" lon="4.16083">
        <ele>673.06</ele>
        <time>2021-11-20T10:36:32Z</time>
      </trkpt>
      <trkpt lat="45.42615" lon="4.16123">
        <ele>673.54</ele>
        <time>2021-11-20T10:36:43Z</time>
      </trkpt>
      <trkpt lat="45.42586" lon="4.16153">
        <ele>674.98</ele>
        <time>2021-11-20T10:36:55Z</time>
      </trkpt>
      <trkpt lat="45.42544" lon="4.162">
        <ele>674.02</ele>
        <time>2021-11-20T10:37:10Z</time>
      </trkpt>
      <trkpt lat="45.42514" lon="4.16237">
        <ele>675.46</ele>
        <time>2021-11-20T10:37:23Z</time>
      </trkpt>
      <trkpt lat="45.42483" lon="4.16274">
        <ele>673.54</ele>
        <time>2021-11-20T10:37:39Z</time>
      </trkpt>
      <trkpt lat="45.4247" lon="4.16287">
        <ele>673.06</ele>
        <time>2021-11-20T10:37:47Z</time>
      </trkpt>
      <trkpt lat="45.42469" lon="4.16288">
        <ele>672.58</ele>
        <time>2021-11-20T10:37:48Z</time>
      </trkpt>
      <trkpt lat="45.42467" lon="4.1629">
        <ele>672.58</ele>
        <time>2021-11-20T10:37:49Z</time>
      </trkpt>
      <trkpt lat="45.42466" lon="4.16292">
        <ele>672.58</ele>
        <time>2021-11-20T10:37:50Z</time>
      </trkpt>
      <trkpt lat="45.42451" lon="4.16307">
        <ele>669.7</ele>
        <time>2021-11-20T10:38:04Z</time>
      </trkpt>
      <trkpt lat="45.42429" lon="4.1632">
        <ele>666.33</ele>
        <time>2021-11-20T10:38:18Z</time>
      </trkpt>
      <trkpt lat="45.42408" lon="4.16335">
        <ele>665.85</ele>
        <time>2021-11-20T10:38:31Z</time>
      </trkpt>
      <trkpt lat="45.42406" lon="4.16337">
        <ele>665.85</ele>
        <time>2021-11-20T10:38:32Z</time>
      </trkpt>
      <trkpt lat="45.42404" lon="4.16337">
        <ele>666.33</ele>
        <time>2021-11-20T10:38:33Z</time>
      </trkpt>
      <trkpt lat="45.42402" lon="4.16338">
        <ele>666.33</ele>
        <time>2021-11-20T10:38:34Z</time>
      </trkpt>
      <trkpt lat="45.424" lon="4.16338">
        <ele>666.33</ele>
        <time>2021-11-20T10:38:35Z</time>
      </trkpt>
      <trkpt lat="45.42394" lon="4.16339">
        <ele>666.33</ele>
        <time>2021-11-20T10:38:40Z</time>
      </trkpt>
      <trkpt lat="45.42369" lon="4.1634">
        <ele>664.89</ele>
        <time>2021-11-20T10:38:56Z</time>
      </trkpt>
      <trkpt lat="45.42352" lon="4.16319">
        <ele>663.45</ele>
        <time>2021-11-20T10:39:11Z</time>
      </trkpt>
      <trkpt lat="45.42341" lon="4.16299">
        <ele>662.49</ele>
        <time>2021-11-20T10:39:25Z</time>
      </trkpt>
      <trkpt lat="45.42327" lon="4.16282">
        <ele>662.01</ele>
        <time>2021-11-20T10:39:40Z</time>
      </trkpt>
      <trkpt lat="45.42313" lon="4.16263">
        <ele>657.68</ele>
        <time>2021-11-20T10:39:54Z</time>
      </trkpt>
      <trkpt lat="45.42301" lon="4.16246">
        <ele>655.76</ele>
        <time>2021-11-20T10:40:05Z</time>
      </trkpt>
      <trkpt lat="45.42297" lon="4.16242">
        <ele>654.31</ele>
        <time>2021-11-20T10:40:09Z</time>
      </trkpt>
      <trkpt lat="45.42296" lon="4.16241">
        <ele>653.83</ele>
        <time>2021-11-20T10:40:10Z</time>
      </trkpt>
      <trkpt lat="45.42288" lon="4.16233">
        <ele>651.91</ele>
        <time>2021-11-20T10:40:18Z</time>
      </trkpt>
      <trkpt lat="45.42277" lon="4.16208">
        <ele>652.87</ele>
        <time>2021-11-20T10:40:32Z</time>
      </trkpt>
      <trkpt lat="45.42264" lon="4.16184">
        <ele>654.31</ele>
        <time>2021-11-20T10:40:47Z</time>
      </trkpt>
      <trkpt lat="45.42261" lon="4.16173">
        <ele>657.2</ele>
        <time>2021-11-20T10:40:52Z</time>
      </trkpt>
      <trkpt lat="45.4226" lon="4.16171">
        <ele>657.2</ele>
        <time>2021-11-20T10:40:53Z</time>
      </trkpt>
      <trkpt lat="45.42258" lon="4.16169">
        <ele>657.68</ele>
        <time>2021-11-20T10:40:54Z</time>
      </trkpt>
      <trkpt lat="45.42257" lon="4.16168">
        <ele>658.16</ele>
        <time>2021-11-20T10:40:55Z</time>
      </trkpt>
      <trkpt lat="45.42242" lon="4.16152">
        <ele>659.6</ele>
        <time>2021-11-20T10:41:10Z</time>
      </trkpt>
      <trkpt lat="45.42236" lon="4.16144">
        <ele>658.16</ele>
        <time>2021-11-20T10:41:16Z</time>
      </trkpt>
      <trkpt lat="45.42224" lon="4.16131">
        <ele>655.76</ele>
        <time>2021-11-20T10:41:28Z</time>
      </trkpt>
      <trkpt lat="45.42223" lon="4.1613">
        <ele>655.76</ele>
        <time>2021-11-20T10:41:29Z</time>
      </trkpt>
      <trkpt lat="45.42222" lon="4.16129">
        <ele>655.28</ele>
        <time>2021-11-20T10:41:30Z</time>
      </trkpt>
      <trkpt lat="45.42201" lon="4.16117">
        <ele>650.95</ele>
        <time>2021-11-20T10:41:47Z</time>
      </trkpt>
      <trkpt lat="45.42179" lon="4.16103">
        <ele>649.03</ele>
        <time>2021-11-20T10:42:04Z</time>
      </trkpt>
      <trkpt lat="45.42173" lon="4.16099">
        <ele>648.07</ele>
        <time>2021-11-20T10:42:09Z</time>
      </trkpt>
      <trkpt lat="45.42172" lon="4.16098">
        <ele>648.07</ele>
        <time>2021-11-20T10:42:10Z</time>
      </trkpt>
      <trkpt lat="45.42171" lon="4.16097">
        <ele>648.07</ele>
        <time>2021-11-20T10:42:11Z</time>
      </trkpt>
      <trkpt lat="45.4217" lon="4.16096">
        <ele>648.55</ele>
        <time>2021-11-20T10:42:12Z</time>
      </trkpt>
      <trkpt lat="45.42165" lon="4.16089">
        <ele>649.51</ele>
        <time>2021-11-20T10:42:18Z</time>
      </trkpt>
      <trkpt lat="45.42159" lon="4.16081">
        <ele>650.47</ele>
        <time>2021-11-20T10:42:24Z</time>
      </trkpt>
      <trkpt lat="45.42155" lon="4.16058">
        <ele>654.31</ele>
        <time>2021-11-20T10:42:35Z</time>
      </trkpt>
      <trkpt lat="45.42158" lon="4.16039">
        <ele>655.76</ele>
        <time>2021-11-20T10:42:44Z</time>
      </trkpt>
      <trkpt lat="45.42159" lon="4.16036">
        <ele>655.76</ele>
        <time>2021-11-20T10:42:45Z</time>
      </trkpt>
      <trkpt lat="45.4217" lon="4.16013">
        <ele>657.68</ele>
        <time>2021-11-20T10:42:58Z</time>
      </trkpt>
      <trkpt lat="45.42184" lon="4.15988">
        <ele>657.68</ele>
        <time>2021-11-20T10:43:14Z</time>
      </trkpt>
      <trkpt lat="45.42192" lon="4.15954">
        <ele>659.6</ele>
        <time>2021-11-20T10:43:31Z</time>
      </trkpt>
      <trkpt lat="45.4219" lon="4.15917">
        <ele>659.6</ele>
        <time>2021-11-20T10:43:50Z</time>
      </trkpt>
      <trkpt lat="45.42189" lon="4.15884">
        <ele>661.52</ele>
        <time>2021-11-20T10:44:07Z</time>
      </trkpt>
      <trkpt lat="45.42188" lon="4.15851">
        <ele>663.93</ele>
        <time>2021-11-20T10:44:26Z</time>
      </trkpt>
      <trkpt lat="45.4219" lon="4.15819">
        <ele>665.85</ele>
        <time>2021-11-20T10:44:43Z</time>
      </trkpt>
      <trkpt lat="45.4219" lon="4.1579">
        <ele>667.29</ele>
        <time>2021-11-20T10:44:57Z</time>
      </trkpt>
      <trkpt lat="45.4219" lon="4.15787">
        <ele>667.29</ele>
        <time>2021-11-20T10:44:58Z</time>
      </trkpt>
      <trkpt lat="45.42189" lon="4.15783">
        <ele>666.81</ele>
        <time>2021-11-20T10:44:59Z</time>
      </trkpt>
      <trkpt lat="45.42183" lon="4.15722">
        <ele>667.77</ele>
        <time>2021-11-20T10:45:11Z</time>
      </trkpt>
      <trkpt lat="45.42184" lon="4.15672">
        <ele>669.7</ele>
        <time>2021-11-20T10:45:25Z</time>
      </trkpt>
      <trkpt lat="45.42177" lon="4.1564">
        <ele>672.1</ele>
        <time>2021-11-20T10:45:36Z</time>
      </trkpt>
      <trkpt lat="45.42167" lon="4.15612">
        <ele>674.98</ele>
        <time>2021-11-20T10:45:51Z</time>
      </trkpt>
      <trkpt lat="45.4216" lon="4.15575">
        <ele>678.83</ele>
        <time>2021-11-20T10:46:10Z</time>
      </trkpt>
      <trkpt lat="45.42154" lon="4.15545">
        <ele>682.19</ele>
        <time>2021-11-20T10:46:26Z</time>
      </trkpt>
      <trkpt lat="45.42141" lon="4.15514">
        <ele>684.6</ele>
        <time>2021-11-20T10:46:45Z</time>
      </trkpt>
      <trkpt lat="45.42132" lon="4.15477">
        <ele>679.31</ele>
        <time>2021-11-20T10:47:06Z</time>
      </trkpt>
      <trkpt lat="45.42128" lon="4.15443">
        <ele>676.42</ele>
        <time>2021-11-20T10:47:25Z</time>
      </trkpt>
      <trkpt lat="45.42123" lon="4.15405">
        <ele>676.42</ele>
        <time>2021-11-20T10:47:45Z</time>
      </trkpt>
      <trkpt lat="45.42112" lon="4.15368">
        <ele>674.98</ele>
        <time>2021-11-20T10:48:06Z</time>
      </trkpt>
      <trkpt lat="45.42095" lon="4.15335">
        <ele>674.5</ele>
        <time>2021-11-20T10:48:28Z</time>
      </trkpt>
      <trkpt lat="45.42077" lon="4.15342">
        <ele>674.02</ele>
        <time>2021-11-20T10:48:47Z</time>
      </trkpt>
      <trkpt lat="45.42063" lon="4.15368">
        <ele>669.7</ele>
        <time>2021-11-20T10:49:07Z</time>
      </trkpt>
      <trkpt lat="45.42054" lon="4.15397">
        <ele>665.85</ele>
        <time>2021-11-20T10:49:23Z</time>
      </trkpt>
      <trkpt lat="45.42053" lon="4.15399">
        <ele>665.37</ele>
        <time>2021-11-20T10:49:24Z</time>
      </trkpt>
      <trkpt lat="45.42046" lon="4.15434">
        <ele>663.45</ele>
        <time>2021-11-20T10:49:43Z</time>
      </trkpt>
      <trkpt lat="45.42045" lon="4.15436">
        <ele>663.45</ele>
        <time>2021-11-20T10:49:44Z</time>
      </trkpt>
      <trkpt lat="45.42027" lon="4.1545">
        <ele>661.52</ele>
        <time>2021-11-20T10:49:59Z</time>
      </trkpt>
      <trkpt lat="45.41998" lon="4.15461">
        <ele>657.2</ele>
        <time>2021-11-20T10:50:18Z</time>
      </trkpt>
      <trkpt lat="45.41965" lon="4.15456">
        <ele>654.8</ele>
        <time>2021-11-20T10:50:40Z</time>
      </trkpt>
      <trkpt lat="45.4194" lon="4.15453">
        <ele>653.35</ele>
        <time>2021-11-20T10:50:59Z</time>
      </trkpt>
      <trkpt lat="45.41912" lon="4.15456">
        <ele>653.83</ele>
        <time>2021-11-20T10:51:18Z</time>
      </trkpt>
      <trkpt lat="45.41884" lon="4.15471">
        <ele>653.83</ele>
        <time>2021-11-20T10:51:37Z</time>
      </trkpt>
      <trkpt lat="45.41857" lon="4.15478">
        <ele>651.91</ele>
        <time>2021-11-20T10:51:57Z</time>
      </trkpt>
      <trkpt lat="45.41831" lon="4.15477">
        <ele>650.47</ele>
        <time>2021-11-20T10:52:17Z</time>
      </trkpt>
      <trkpt lat="45.41785" lon="4.15478">
        <ele>647.1</ele>
        <time>2021-11-20T10:52:33Z</time>
      </trkpt>
      <trkpt lat="45.41756" lon="4.15481">
        <ele>646.14</ele>
        <time>2021-11-20T10:52:38Z</time>
      </trkpt>
      <trkpt lat="45.41673" lon="4.15499">
        <ele>646.62</ele>
        <time>2021-11-20T10:52:52Z</time>
      </trkpt>
      <trkpt lat="45.416" lon="4.15485">
        <ele>649.51</ele>
        <time>2021-11-20T10:53:06Z</time>
      </trkpt>
      <trkpt lat="45.41526" lon="4.15458">
        <ele>655.76</ele>
        <time>2021-11-20T10:53:22Z</time>
      </trkpt>
      <trkpt lat="45.41448" lon="4.15456">
        <ele>660.08</ele>
        <time>2021-11-20T10:53:37Z</time>
      </trkpt>
      <trkpt lat="45.41372" lon="4.15468">
        <ele>660.56</ele>
        <time>2021-11-20T10:53:53Z</time>
      </trkpt>
      <trkpt lat="45.41331" lon="4.15462">
        <ele>659.6</ele>
        <time>2021-11-20T10:54:07Z</time>
      </trkpt>
      <trkpt lat="45.41309" lon="4.15473">
        <ele>657.2</ele>
        <time>2021-11-20T10:54:24Z</time>
      </trkpt>
      <trkpt lat="45.41271" lon="4.1547">
        <ele>654.8</ele>
        <time>2021-11-20T10:54:45Z</time>
      </trkpt>
      <trkpt lat="45.41231" lon="4.15465">
        <ele>656.72</ele>
        <time>2021-11-20T10:55:10Z</time>
      </trkpt>
      <trkpt lat="45.41213" lon="4.15454">
        <ele>658.16</ele>
        <time>2021-11-20T10:55:26Z</time>
      </trkpt>
      <trkpt lat="45.41195" lon="4.15408">
        <ele>655.28</ele>
        <time>2021-11-20T10:55:50Z</time>
      </trkpt>
      <trkpt lat="45.41172" lon="4.15381">
        <ele>658.64</ele>
        <time>2021-11-20T10:56:09Z</time>
      </trkpt>
      <trkpt lat="45.41148" lon="4.15354">
        <ele>662.49</ele>
        <time>2021-11-20T10:56:32Z</time>
      </trkpt>
      <trkpt lat="45.4112" lon="4.15319">
        <ele>668.25</ele>
        <time>2021-11-20T10:56:57Z</time>
      </trkpt>
      <trkpt lat="45.41096" lon="4.1529">
        <ele>671.14</ele>
        <time>2021-11-20T10:57:18Z</time>
      </trkpt>
      <trkpt lat="45.41085" lon="4.15283">
        <ele>672.1</ele>
        <time>2021-11-20T10:57:37Z</time>
      </trkpt>
      <trkpt lat="45.41084" lon="4.15283">
        <ele>673.54</ele>
        <time>2021-11-20T10:58:03Z</time>
      </trkpt>
      <trkpt lat="45.4108" lon="4.1528">
        <ele>674.02</ele>
        <time>2021-11-20T10:58:27Z</time>
      </trkpt>
      <trkpt lat="45.41078" lon="4.15279">
        <ele>676.42</ele>
        <time>2021-11-20T10:58:46Z</time>
      </trkpt>
      <trkpt lat="45.41057" lon="4.1527">
        <ele>675.94</ele>
        <time>2021-11-20T10:59:05Z</time>
      </trkpt>
      <trkpt lat="45.41029" lon="4.15261">
        <ele>674.5</ele>
        <time>2021-11-20T10:59:26Z</time>
      </trkpt>
      <trkpt lat="45.40995" lon="4.15258">
        <ele>674.5</ele>
        <time>2021-11-20T10:59:49Z</time>
      </trkpt>
      <trkpt lat="45.4096" lon="4.15251">
        <ele>677.39</ele>
        <time>2021-11-20T11:00:13Z</time>
      </trkpt>
      <trkpt lat="45.40933" lon="4.15238">
        <ele>678.35</ele>
        <time>2021-11-20T11:00:34Z</time>
      </trkpt>
      <trkpt lat="45.40901" lon="4.15221">
        <ele>679.79</ele>
        <time>2021-11-20T11:00:58Z</time>
      </trkpt>
      <trkpt lat="45.40866" lon="4.15219">
        <ele>682.19</ele>
        <time>2021-11-20T11:01:23Z</time>
      </trkpt>
      <trkpt lat="45.40828" lon="4.15226">
        <ele>687</ele>
        <time>2021-11-20T11:01:49Z</time>
      </trkpt>
      <trkpt lat="45.40798" lon="4.15223">
        <ele>691.33</ele>
        <time>2021-11-20T11:02:11Z</time>
      </trkpt>
      <trkpt lat="45.4076" lon="4.15215">
        <ele>696.61</ele>
        <time>2021-11-20T11:02:38Z</time>
      </trkpt>
      <trkpt lat="45.40734" lon="4.15209">
        <ele>700.94</ele>
        <time>2021-11-20T11:03:01Z</time>
      </trkpt>
      <trkpt lat="45.4073" lon="4.15176">
        <ele>699.98</ele>
        <time>2021-11-20T11:03:18Z</time>
      </trkpt>
      <trkpt lat="45.4073" lon="4.15174">
        <ele>699.98</ele>
        <time>2021-11-20T11:03:19Z</time>
      </trkpt>
      <trkpt lat="45.4073" lon="4.15173">
        <ele>699.98</ele>
        <time>2021-11-20T11:03:20Z</time>
      </trkpt>
      <trkpt lat="45.40728" lon="4.15121">
        <ele>695.65</ele>
        <time>2021-11-20T11:03:42Z</time>
      </trkpt>
      <trkpt lat="45.40725" lon="4.15071">
        <ele>692.77</ele>
        <time>2021-11-20T11:04:05Z</time>
      </trkpt>
      <trkpt lat="45.40722" lon="4.15027">
        <ele>687.96</ele>
        <time>2021-11-20T11:04:27Z</time>
      </trkpt>
      <trkpt lat="45.40722" lon="4.14983">
        <ele>684.6</ele>
        <time>2021-11-20T11:04:48Z</time>
      </trkpt>
      <trkpt lat="45.40718" lon="4.14977">
        <ele>682.67</ele>
        <time>2021-11-20T11:04:53Z</time>
      </trkpt>
      <trkpt lat="45.40717" lon="4.14976">
        <ele>682.67</ele>
        <time>2021-11-20T11:04:54Z</time>
      </trkpt>
      <trkpt lat="45.40716" lon="4.14975">
        <ele>682.19</ele>
        <time>2021-11-20T11:04:55Z</time>
      </trkpt>
      <trkpt lat="45.40685" lon="4.14955">
        <ele>679.31</ele>
        <time>2021-11-20T11:05:15Z</time>
      </trkpt>
      <trkpt lat="45.40663" lon="4.14923">
        <ele>678.35</ele>
        <time>2021-11-20T11:05:34Z</time>
      </trkpt>
      <trkpt lat="45.40651" lon="4.14881">
        <ele>679.79</ele>
        <time>2021-11-20T11:05:55Z</time>
      </trkpt>
      <trkpt lat="45.40638" lon="4.14842">
        <ele>675.94</ele>
        <time>2021-11-20T11:06:15Z</time>
      </trkpt>
      <trkpt lat="45.40632" lon="4.14796">
        <ele>674.98</ele>
        <time>2021-11-20T11:06:35Z</time>
      </trkpt>
      <trkpt lat="45.40632" lon="4.14794">
        <ele>675.46</ele>
        <time>2021-11-20T11:06:36Z</time>
      </trkpt>
      <trkpt lat="45.40631" lon="4.14791">
        <ele>675.46</ele>
        <time>2021-11-20T11:06:37Z</time>
      </trkpt>
      <trkpt lat="45.40621" lon="4.14762">
        <ele>676.42</ele>
        <time>2021-11-20T11:06:52Z</time>
      </trkpt>
      <trkpt lat="45.40605" lon="4.14729">
        <ele>675.94</ele>
        <time>2021-11-20T11:07:11Z</time>
      </trkpt>
      <trkpt lat="45.40603" lon="4.147">
        <ele>675.46</ele>
        <time>2021-11-20T11:07:23Z</time>
      </trkpt>
      <trkpt lat="45.40604" lon="4.14698">
        <ele>674.98</ele>
        <time>2021-11-20T11:07:24Z</time>
      </trkpt>
      <trkpt lat="45.40622" lon="4.14666">
        <ele>674.02</ele>
        <time>2021-11-20T11:07:41Z</time>
      </trkpt>
      <trkpt lat="45.40639" lon="4.14625">
        <ele>675.46</ele>
        <time>2021-11-20T11:08:01Z</time>
      </trkpt>
      <trkpt lat="45.40654" lon="4.14603">
        <ele>677.87</ele>
        <time>2021-11-20T11:08:18Z</time>
      </trkpt>
      <trkpt lat="45.40687" lon="4.1462">
        <ele>680.27</ele>
        <time>2021-11-20T11:08:41Z</time>
      </trkpt>
      <trkpt lat="45.40709" lon="4.14635">
        <ele>679.79</ele>
        <time>2021-11-20T11:08:59Z</time>
      </trkpt>
      <trkpt lat="45.40742" lon="4.14653">
        <ele>679.79</ele>
        <time>2021-11-20T11:09:20Z</time>
      </trkpt>
      <trkpt lat="45.4077" lon="4.14647">
        <ele>681.23</ele>
        <time>2021-11-20T11:09:38Z</time>
      </trkpt>
      <trkpt lat="45.40797" lon="4.14632">
        <ele>681.23</ele>
        <time>2021-11-20T11:09:54Z</time>
      </trkpt>
      <trkpt lat="45.40817" lon="4.14619">
        <ele>682.19</ele>
        <time>2021-11-20T11:10:11Z</time>
      </trkpt>
      <trkpt lat="45.40845" lon="4.14609">
        <ele>686.04</ele>
        <time>2021-11-20T11:10:30Z</time>
      </trkpt>
      <trkpt lat="45.40871" lon="4.14594">
        <ele>687</ele>
        <time>2021-11-20T11:10:48Z</time>
      </trkpt>
      <trkpt lat="45.40893" lon="4.14576">
        <ele>689.88</ele>
        <time>2021-11-20T11:11:06Z</time>
      </trkpt>
      <trkpt lat="45.4091" lon="4.14556">
        <ele>691.33</ele>
        <time>2021-11-20T11:11:23Z</time>
      </trkpt>
      <trkpt lat="45.40913" lon="4.1455">
        <ele>691.81</ele>
        <time>2021-11-20T11:11:26Z</time>
      </trkpt>
      <trkpt lat="45.40935" lon="4.14516">
        <ele>696.61</ele>
        <time>2021-11-20T11:11:47Z</time>
      </trkpt>
      <trkpt lat="45.40961" lon="4.14486">
        <ele>701.42</ele>
        <time>2021-11-20T11:12:09Z</time>
      </trkpt>
      <trkpt lat="45.40983" lon="4.14461">
        <ele>703.82</ele>
        <time>2021-11-20T11:12:28Z</time>
      </trkpt>
      <trkpt lat="45.4101" lon="4.14443">
        <ele>705.75</ele>
        <time>2021-11-20T11:12:49Z</time>
      </trkpt>
      <trkpt lat="45.41041" lon="4.14439">
        <ele>707.67</ele>
        <time>2021-11-20T11:13:08Z</time>
      </trkpt>
      <trkpt lat="45.4107" lon="4.14433">
        <ele>708.63</ele>
        <time>2021-11-20T11:13:26Z</time>
      </trkpt>
      <trkpt lat="45.41096" lon="4.14412">
        <ele>711.03</ele>
        <time>2021-11-20T11:13:47Z</time>
      </trkpt>
      <trkpt lat="45.41112" lon="4.14393">
        <ele>712.47</ele>
        <time>2021-11-20T11:14:03Z</time>
      </trkpt>
      <trkpt lat="45.4112" lon="4.14378">
        <ele>711.03</ele>
        <time>2021-11-20T11:14:27Z</time>
      </trkpt>
      <trkpt lat="45.41137" lon="4.14344">
        <ele>711.03</ele>
        <time>2021-11-20T11:14:47Z</time>
      </trkpt>
      <trkpt lat="45.41154" lon="4.14316">
        <ele>710.55</ele>
        <time>2021-11-20T11:15:04Z</time>
      </trkpt>
      <trkpt lat="45.41174" lon="4.14281">
        <ele>710.55</ele>
        <time>2021-11-20T11:15:25Z</time>
      </trkpt>
      <trkpt lat="45.41195" lon="4.14243">
        <ele>709.59</ele>
        <time>2021-11-20T11:15:48Z</time>
      </trkpt>
      <trkpt lat="45.4122" lon="4.14206">
        <ele>707.67</ele>
        <time>2021-11-20T11:16:13Z</time>
      </trkpt>
      <trkpt lat="45.41247" lon="4.14171">
        <ele>705.75</ele>
        <time>2021-11-20T11:16:37Z</time>
      </trkpt>
      <trkpt lat="45.41262" lon="4.1415">
        <ele>702.86</ele>
        <time>2021-11-20T11:16:55Z</time>
      </trkpt>
      <trkpt lat="45.41281" lon="4.1413">
        <ele>701.42</ele>
        <time>2021-11-20T11:17:12Z</time>
      </trkpt>
      <trkpt lat="45.41296" lon="4.14101">
        <ele>699.02</ele>
        <time>2021-11-20T11:17:31Z</time>
      </trkpt>
      <trkpt lat="45.41312" lon="4.14071">
        <ele>698.53</ele>
        <time>2021-11-20T11:17:50Z</time>
      </trkpt>
      <trkpt lat="45.41333" lon="4.14034">
        <ele>694.69</ele>
        <time>2021-11-20T11:18:14Z</time>
      </trkpt>
      <trkpt lat="45.41355" lon="4.14008">
        <ele>696.13</ele>
        <time>2021-11-20T11:18:32Z</time>
      </trkpt>
      <trkpt lat="45.41357" lon="4.14007">
        <ele>696.13</ele>
        <time>2021-11-20T11:18:33Z</time>
      </trkpt>
      <trkpt lat="45.41375" lon="4.13969">
        <ele>695.17</ele>
        <time>2021-11-20T11:18:54Z</time>
      </trkpt>
      <trkpt lat="45.41394" lon="4.13923">
        <ele>698.05</ele>
        <time>2021-11-20T11:19:20Z</time>
      </trkpt>
      <trkpt lat="45.41403" lon="4.13883">
        <ele>699.02</ele>
        <time>2021-11-20T11:19:39Z</time>
      </trkpt>
      <trkpt lat="45.41411" lon="4.13839">
        <ele>700.46</ele>
        <time>2021-11-20T11:20:00Z</time>
      </trkpt>
      <trkpt lat="45.41419" lon="4.13792">
        <ele>702.86</ele>
        <time>2021-11-20T11:20:22Z</time>
      </trkpt>
      <trkpt lat="45.41427" lon="4.13756">
        <ele>704.78</ele>
        <time>2021-11-20T11:20:41Z</time>
      </trkpt>
      <trkpt lat="45.41436" lon="4.13714">
        <ele>709.59</ele>
        <time>2021-11-20T11:21:02Z</time>
      </trkpt>
      <trkpt lat="45.41451" lon="4.13673">
        <ele>711.03</ele>
        <time>2021-11-20T11:21:20Z</time>
      </trkpt>
      <trkpt lat="45.4146" lon="4.13641">
        <ele>712.47</ele>
        <time>2021-11-20T11:21:39Z</time>
      </trkpt>
      <trkpt lat="45.41466" lon="4.13605">
        <ele>712.47</ele>
        <time>2021-11-20T11:21:57Z</time>
      </trkpt>
      <trkpt lat="45.41469" lon="4.13574">
        <ele>711.99</ele>
        <time>2021-11-20T11:22:14Z</time>
      </trkpt>
      <trkpt lat="45.41468" lon="4.13541">
        <ele>711.99</ele>
        <time>2021-11-20T11:22:31Z</time>
      </trkpt>
      <trkpt lat="45.41479" lon="4.13506">
        <ele>711.03</ele>
        <time>2021-11-20T11:22:50Z</time>
      </trkpt>
      <trkpt lat="45.41479" lon="4.1349">
        <ele>711.51</ele>
        <time>2021-11-20T11:23:00Z</time>
      </trkpt>
      <trkpt lat="45.41478" lon="4.13489">
        <ele>711.51</ele>
        <time>2021-11-20T11:23:01Z</time>
      </trkpt>
      <trkpt lat="45.41477" lon="4.13487">
        <ele>711.51</ele>
        <time>2021-11-20T11:23:02Z</time>
      </trkpt>
      <trkpt lat="45.41476" lon="4.13485">
        <ele>711.51</ele>
        <time>2021-11-20T11:23:03Z</time>
      </trkpt>
      <trkpt lat="45.41475" lon="4.13483">
        <ele>711.03</ele>
        <time>2021-11-20T11:23:04Z</time>
      </trkpt>
      <trkpt lat="45.41475" lon="4.13481">
        <ele>711.03</ele>
        <time>2021-11-20T11:23:05Z</time>
      </trkpt>
      <trkpt lat="45.41475" lon="4.13479">
        <ele>711.03</ele>
        <time>2021-11-20T11:23:06Z</time>
      </trkpt>
      <trkpt lat="45.41476" lon="4.13449">
        <ele>710.55</ele>
        <time>2021-11-20T11:23:22Z</time>
      </trkpt>
      <trkpt lat="45.41475" lon="4.13414">
        <ele>711.03</ele>
        <time>2021-11-20T11:23:38Z</time>
      </trkpt>
      <trkpt lat="45.41477" lon="4.13392">
        <ele>710.07</ele>
        <time>2021-11-20T11:23:48Z</time>
      </trkpt>
      <trkpt lat="45.41477" lon="4.1339">
        <ele>710.55</ele>
        <time>2021-11-20T11:23:49Z</time>
      </trkpt>
      <trkpt lat="45.41485" lon="4.13355">
        <ele>711.51</ele>
        <time>2021-11-20T11:24:06Z</time>
      </trkpt>
      <trkpt lat="45.41495" lon="4.13316">
        <ele>713.44</ele>
        <time>2021-11-20T11:24:26Z</time>
      </trkpt>
      <trkpt lat="45.41501" lon="4.13284">
        <ele>711.51</ele>
        <time>2021-11-20T11:24:45Z</time>
      </trkpt>
      <trkpt lat="45.41493" lon="4.13256">
        <ele>712.95</ele>
        <time>2021-11-20T11:25:01Z</time>
      </trkpt>
      <trkpt lat="45.41492" lon="4.13255">
        <ele>712.95</ele>
        <time>2021-11-20T11:25:02Z</time>
      </trkpt>
      <trkpt lat="45.41491" lon="4.13254">
        <ele>713.44</ele>
        <time>2021-11-20T11:25:03Z</time>
      </trkpt>
      <trkpt lat="45.41489" lon="4.13253">
        <ele>713.44</ele>
        <time>2021-11-20T11:25:04Z</time>
      </trkpt>
      <trkpt lat="45.41488" lon="4.13252">
        <ele>713.92</ele>
        <time>2021-11-20T11:25:05Z</time>
      </trkpt>
      <trkpt lat="45.4147" lon="4.13234">
        <ele>716.8</ele>
        <time>2021-11-20T11:25:21Z</time>
      </trkpt>
      <trkpt lat="45.4147" lon="4.13206">
        <ele>720.16</ele>
        <time>2021-11-20T11:25:34Z</time>
      </trkpt>
      <trkpt lat="45.41473" lon="4.13172">
        <ele>724.01</ele>
        <time>2021-11-20T11:25:51Z</time>
      </trkpt>
      <trkpt lat="45.4148" lon="4.13136">
        <ele>721.61</ele>
        <time>2021-11-20T11:26:09Z</time>
      </trkpt>
      <trkpt lat="45.41495" lon="4.13136">
        <ele>722.09</ele>
        <time>2021-11-20T11:26:23Z</time>
      </trkpt>
      <trkpt lat="45.41522" lon="4.13145">
        <ele>723.05</ele>
        <time>2021-11-20T11:26:39Z</time>
      </trkpt>
      <trkpt lat="45.41549" lon="4.13157">
        <ele>720.65</ele>
        <time>2021-11-20T11:26:57Z</time>
      </trkpt>
      <trkpt lat="45.41558" lon="4.13155">
        <ele>718.72</ele>
        <time>2021-11-20T11:27:05Z</time>
      </trkpt>
      <trkpt lat="45.41565" lon="4.13122">
        <ele>716.32</ele>
        <time>2021-11-20T11:27:23Z</time>
      </trkpt>
      <trkpt lat="45.41569" lon="4.13092">
        <ele>714.88</ele>
        <time>2021-11-20T11:27:39Z</time>
      </trkpt>
      <trkpt lat="45.41577" lon="4.13052">
        <ele>714.88</ele>
        <time>2021-11-20T11:28:00Z</time>
      </trkpt>
      <trkpt lat="45.41591" lon="4.13007">
        <ele>712.95</ele>
        <time>2021-11-20T11:28:24Z</time>
      </trkpt>
      <trkpt lat="45.41599" lon="4.1298">
        <ele>711.03</ele>
        <time>2021-11-20T11:28:41Z</time>
      </trkpt>
      <trkpt lat="45.41609" lon="4.12956">
        <ele>707.67</ele>
        <time>2021-11-20T11:28:56Z</time>
      </trkpt>
      <trkpt lat="45.41614" lon="4.12928">
        <ele>708.15</ele>
        <time>2021-11-20T11:29:11Z</time>
      </trkpt>
      <trkpt lat="45.41625" lon="4.1289">
        <ele>704.78</ele>
        <time>2021-11-20T11:29:30Z</time>
      </trkpt>
      <trkpt lat="45.41627" lon="4.12885">
        <ele>704.3</ele>
        <time>2021-11-20T11:29:33Z</time>
      </trkpt>
      <trkpt lat="45.41627" lon="4.12883">
        <ele>703.82</ele>
        <time>2021-11-20T11:29:34Z</time>
      </trkpt>
      <trkpt lat="45.41628" lon="4.12881">
        <ele>703.82</ele>
        <time>2021-11-20T11:29:35Z</time>
      </trkpt>
      <trkpt lat="45.41638" lon="4.12839">
        <ele>702.86</ele>
        <time>2021-11-20T11:29:57Z</time>
      </trkpt>
      <trkpt lat="45.41649" lon="4.12802">
        <ele>701.42</ele>
        <time>2021-11-20T11:30:17Z</time>
      </trkpt>
      <trkpt lat="45.41659" lon="4.12771">
        <ele>700.94</ele>
        <time>2021-11-20T11:30:35Z</time>
      </trkpt>
      <trkpt lat="45.4167" lon="4.12738">
        <ele>702.38</ele>
        <time>2021-11-20T11:30:54Z</time>
      </trkpt>
      <trkpt lat="45.41685" lon="4.12705">
        <ele>700.46</ele>
        <time>2021-11-20T11:31:12Z</time>
      </trkpt>
      <trkpt lat="45.41702" lon="4.1268">
        <ele>698.05</ele>
        <time>2021-11-20T11:31:28Z</time>
      </trkpt>
      <trkpt lat="45.41719" lon="4.1265">
        <ele>698.53</ele>
        <time>2021-11-20T11:31:46Z</time>
      </trkpt>
      <trkpt lat="45.41734" lon="4.1261">
        <ele>698.53</ele>
        <time>2021-11-20T11:32:09Z</time>
      </trkpt>
      <trkpt lat="45.41747" lon="4.12572">
        <ele>697.57</ele>
        <time>2021-11-20T11:32:31Z</time>
      </trkpt>
      <trkpt lat="45.41753" lon="4.12535">
        <ele>693.73</ele>
        <time>2021-11-20T11:32:51Z</time>
      </trkpt>
      <trkpt lat="45.41764" lon="4.12508">
        <ele>688.92</ele>
        <time>2021-11-20T11:33:05Z</time>
      </trkpt>
      <trkpt lat="45.41787" lon="4.12477">
        <ele>680.75</ele>
        <time>2021-11-20T11:33:24Z</time>
      </trkpt>
      <trkpt lat="45.41811" lon="4.12464">
        <ele>676.91</ele>
        <time>2021-11-20T11:33:41Z</time>
      </trkpt>
      <trkpt lat="45.41837" lon="4.12454">
        <ele>674.5</ele>
        <time>2021-11-20T11:33:59Z</time>
      </trkpt>
      <trkpt lat="45.41864" lon="4.12439">
        <ele>675.94</ele>
        <time>2021-11-20T11:34:19Z</time>
      </trkpt>
      <trkpt lat="45.41892" lon="4.12421">
        <ele>675.46</ele>
        <time>2021-11-20T11:34:40Z</time>
      </trkpt>
      <trkpt lat="45.41917" lon="4.12413">
        <ele>676.42</ele>
        <time>2021-11-20T11:34:59Z</time>
      </trkpt>
      <trkpt lat="45.41942" lon="4.12405">
        <ele>679.31</ele>
        <time>2021-11-20T11:35:17Z</time>
      </trkpt>
      <trkpt lat="45.41962" lon="4.12398">
        <ele>679.31</ele>
        <time>2021-11-20T11:35:33Z</time>
      </trkpt>
      <trkpt lat="45.41992" lon="4.12395">
        <ele>677.87</ele>
        <time>2021-11-20T11:35:50Z</time>
      </trkpt>
      <trkpt lat="45.42009" lon="4.12385">
        <ele>676.91</ele>
        <time>2021-11-20T11:36:05Z</time>
      </trkpt>
      <trkpt lat="45.42016" lon="4.12381">
        <ele>676.91</ele>
        <time>2021-11-20T11:36:11Z</time>
      </trkpt>
      <trkpt lat="45.4204" lon="4.12366">
        <ele>675.94</ele>
        <time>2021-11-20T11:36:27Z</time>
      </trkpt>
      <trkpt lat="45.42065" lon="4.1235">
        <ele>676.42</ele>
        <time>2021-11-20T11:36:45Z</time>
      </trkpt>
      <trkpt lat="45.42089" lon="4.12338">
        <ele>676.42</ele>
        <time>2021-11-20T11:37:03Z</time>
      </trkpt>
      <trkpt lat="45.42105" lon="4.12324">
        <ele>674.5</ele>
        <time>2021-11-20T11:37:18Z</time>
      </trkpt>
      <trkpt lat="45.42125" lon="4.12306">
        <ele>672.58</ele>
        <time>2021-11-20T11:37:33Z</time>
      </trkpt>
      <trkpt lat="45.42145" lon="4.12287">
        <ele>670.66</ele>
        <time>2021-11-20T11:37:50Z</time>
      </trkpt>
      <trkpt lat="45.42165" lon="4.12264">
        <ele>672.1</ele>
        <time>2021-11-20T11:38:09Z</time>
      </trkpt>
      <trkpt lat="45.42187" lon="4.12234">
        <ele>672.58</ele>
        <time>2021-11-20T11:38:27Z</time>
      </trkpt>
      <trkpt lat="45.42207" lon="4.12213">
        <ele>672.1</ele>
        <time>2021-11-20T11:38:45Z</time>
      </trkpt>
      <trkpt lat="45.42228" lon="4.12206">
        <ele>669.7</ele>
        <time>2021-11-20T11:38:59Z</time>
      </trkpt>
      <trkpt lat="45.42248" lon="4.12198">
        <ele>671.62</ele>
        <time>2021-11-20T11:39:14Z</time>
      </trkpt>
      <trkpt lat="45.42252" lon="4.12197">
        <ele>671.62</ele>
        <time>2021-11-20T11:39:18Z</time>
      </trkpt>
      <trkpt lat="45.42265" lon="4.12187">
        <ele>673.06</ele>
        <time>2021-11-20T11:39:32Z</time>
      </trkpt>
      <trkpt lat="45.42271" lon="4.12183">
        <ele>673.06</ele>
        <time>2021-11-20T11:39:36Z</time>
      </trkpt>
      <trkpt lat="45.42299" lon="4.12164">
        <ele>672.1</ele>
        <time>2021-11-20T11:39:54Z</time>
      </trkpt>
      <trkpt lat="45.42304" lon="4.12164">
        <ele>672.1</ele>
        <time>2021-11-20T11:39:58Z</time>
      </trkpt>
      <trkpt lat="45.42305" lon="4.12165">
        <ele>672.1</ele>
        <time>2021-11-20T11:39:59Z</time>
      </trkpt>
      <trkpt lat="45.42312" lon="4.12162">
        <ele>671.62</ele>
        <time>2021-11-20T11:40:15Z</time>
      </trkpt>
      <trkpt lat="45.42312" lon="4.1216">
        <ele>672.58</ele>
        <time>2021-11-20T11:40:44Z</time>
      </trkpt>
      <trkpt lat="45.42313" lon="4.12152">
        <ele>669.7</ele>
        <time>2021-11-20T11:41:07Z</time>
      </trkpt>
      <trkpt lat="45.42311" lon="4.12157">
        <ele>672.58</ele>
        <time>2021-11-20T11:41:33Z</time>
      </trkpt>
      <trkpt lat="45.42312" lon="4.12152">
        <ele>674.02</ele>
        <time>2021-11-20T11:41:50Z</time>
      </trkpt>
      <trkpt lat="45.42314" lon="4.12154">
        <ele>672.58</ele>
        <time>2021-11-20T11:42:02Z</time>
      </trkpt>
      <trkpt lat="45.42314" lon="4.12148">
        <ele>670.66</ele>
        <time>2021-11-20T11:42:27Z</time>
      </trkpt>
      <trkpt lat="45.42314" lon="4.12154">
        <ele>669.7</ele>
        <time>2021-11-20T11:42:45Z</time>
      </trkpt>
      <trkpt lat="45.42314" lon="4.12157">
        <ele>669.22</ele>
        <time>2021-11-20T11:43:01Z</time>
      </trkpt>
      <trkpt lat="45.42313" lon="4.12153">
        <ele>669.7</ele>
        <time>2021-11-20T11:43:22Z</time>
      </trkpt>
      <trkpt lat="45.42313" lon="4.12154">
        <ele>669.22</ele>
        <time>2021-11-20T11:43:45Z</time>
      </trkpt>
      <trkpt lat="45.42314" lon="4.12158">
        <ele>668.25</ele>
        <time>2021-11-20T11:44:00Z</time>
      </trkpt>
      <trkpt lat="45.42317" lon="4.12162">
        <ele>666.81</ele>
        <time>2021-11-20T11:44:21Z</time>
      </trkpt>
      <trkpt lat="45.42312" lon="4.12159">
        <ele>667.29</ele>
        <time>2021-11-20T11:44:36Z</time>
      </trkpt>
      <trkpt lat="45.42315" lon="4.12155">
        <ele>669.22</ele>
        <time>2021-11-20T11:45:01Z</time>
      </trkpt>
      <trkpt lat="45.42315" lon="4.12154">
        <ele>670.66</ele>
        <time>2021-11-20T11:45:23Z</time>
      </trkpt>
      <trkpt lat="45.42314" lon="4.12155">
        <ele>669.7</ele>
        <time>2021-11-20T11:45:44Z</time>
      </trkpt>
      <trkpt lat="45.42316" lon="4.12156">
        <ele>668.73</ele>
        <time>2021-11-20T11:46:07Z</time>
      </trkpt>
      <trkpt lat="45.42314" lon="4.12156">
        <ele>670.66</ele>
        <time>2021-11-20T11:46:22Z</time>
      </trkpt>
      <trkpt lat="45.4231" lon="4.12164">
        <ele>671.14</ele>
        <time>2021-11-20T11:46:34Z</time>
      </trkpt>
      <trkpt lat="45.42314" lon="4.12168">
        <ele>671.62</ele>
        <time>2021-11-20T11:46:54Z</time>
      </trkpt>
      <trkpt lat="45.42313" lon="4.12168">
        <ele>671.14</ele>
        <time>2021-11-20T11:47:25Z</time>
      </trkpt>
      <trkpt lat="45.42313" lon="4.12168">
        <ele>670.18</ele>
        <time>2021-11-20T11:47:54Z</time>
      </trkpt>
      <trkpt lat="45.42315" lon="4.1217">
        <ele>669.7</ele>
        <time>2021-11-20T11:48:08Z</time>
      </trkpt>
      <trkpt lat="45.42311" lon="4.12173">
        <ele>670.66</ele>
        <time>2021-11-20T11:48:38Z</time>
      </trkpt>
      <trkpt lat="45.42305" lon="4.12164">
        <ele>669.7</ele>
        <time>2021-11-20T11:48:51Z</time>
      </trkpt>
      <trkpt lat="45.42307" lon="4.12158">
        <ele>669.7</ele>
        <time>2021-11-20T11:49:10Z</time>
      </trkpt>
      <trkpt lat="45.42306" lon="4.12165">
        <ele>669.7</ele>
        <time>2021-11-20T11:49:36Z</time>
      </trkpt>
      <trkpt lat="45.42307" lon="4.12165">
        <ele>671.14</ele>
        <time>2021-11-20T11:49:59Z</time>
      </trkpt>
      <trkpt lat="45.42309" lon="4.12167">
        <ele>672.58</ele>
        <time>2021-11-20T11:50:28Z</time>
      </trkpt>
      <trkpt lat="45.42306" lon="4.12165">
        <ele>670.66</ele>
        <time>2021-11-20T11:50:58Z</time>
      </trkpt>
      <trkpt lat="45.42307" lon="4.12152">
        <ele>675.46</ele>
        <time>2021-11-20T11:51:30Z</time>
      </trkpt>
      <trkpt lat="45.4231" lon="4.12152">
        <ele>676.91</ele>
        <time>2021-11-20T11:52:11Z</time>
      </trkpt>
      <trkpt lat="45.42306" lon="4.12155">
        <ele>680.27</ele>
        <time>2021-11-20T11:52:44Z</time>
      </trkpt>
      <trkpt lat="45.42308" lon="4.12153">
        <ele>683.15</ele>
        <time>2021-11-20T11:53:18Z</time>
      </trkpt>
      <trkpt lat="45.42302" lon="4.1216">
        <ele>675.94</ele>
        <time>2021-11-20T11:53:55Z</time>
      </trkpt>
      <trkpt lat="45.42304" lon="4.12157">
        <ele>678.35</ele>
        <time>2021-11-20T11:54:33Z</time>
      </trkpt>
      <trkpt lat="45.42305" lon="4.12163">
        <ele>676.91</ele>
        <time>2021-11-20T11:55:08Z</time>
      </trkpt>
      <trkpt lat="45.42306" lon="4.12161">
        <ele>678.35</ele>
        <time>2021-11-20T11:55:41Z</time>
      </trkpt>
      <trkpt lat="45.42309" lon="4.1216">
        <ele>680.27</ele>
        <time>2021-11-20T11:56:18Z</time>
      </trkpt>
      <trkpt lat="45.42308" lon="4.1216">
        <ele>680.75</ele>
        <time>2021-11-20T11:56:50Z</time>
      </trkpt>
      <trkpt lat="45.42308" lon="4.12158">
        <ele>681.23</ele>
        <time>2021-11-20T11:57:27Z</time>
      </trkpt>
      <trkpt lat="45.42303" lon="4.12156">
        <ele>679.31</ele>
        <time>2021-11-20T11:58:08Z</time>
      </trkpt>
      <trkpt lat="45.42302" lon="4.12158">
        <ele>679.79</ele>
        <time>2021-11-20T11:58:42Z</time>
      </trkpt>
      <trkpt lat="45.423" lon="4.12155">
        <ele>679.31</ele>
        <time>2021-11-20T11:59:10Z</time>
      </trkpt>
      <trkpt lat="45.42302" lon="4.12155">
        <ele>679.79</ele>
        <time>2021-11-20T11:59:38Z</time>
      </trkpt>
      <trkpt lat="45.42303" lon="4.1216">
        <ele>678.35</ele>
        <time>2021-11-20T12:00:10Z</time>
      </trkpt>
      <trkpt lat="45.42304" lon="4.12157">
        <ele>679.79</ele>
        <time>2021-11-20T12:00:44Z</time>
      </trkpt>
      <trkpt lat="45.42303" lon="4.12153">
        <ele>682.19</ele>
        <time>2021-11-20T12:01:21Z</time>
      </trkpt>
      <trkpt lat="45.42305" lon="4.12158">
        <ele>680.27</ele>
        <time>2021-11-20T12:02:01Z</time>
      </trkpt>
      <trkpt lat="45.42306" lon="4.12159">
        <ele>678.35</ele>
        <time>2021-11-20T12:02:38Z</time>
      </trkpt>
      <trkpt lat="45.42303" lon="4.12161">
        <ele>675.46</ele>
        <time>2021-11-20T12:03:13Z</time>
      </trkpt>
      <trkpt lat="45.42305" lon="4.12158">
        <ele>677.87</ele>
        <time>2021-11-20T12:03:47Z</time>
      </trkpt>
      <trkpt lat="45.42307" lon="4.12156">
        <ele>678.83</ele>
        <time>2021-11-20T12:04:27Z</time>
      </trkpt>
      <trkpt lat="45.42306" lon="4.12156">
        <ele>679.79</ele>
        <time>2021-11-20T12:05:00Z</time>
      </trkpt>
      <trkpt lat="45.42304" lon="4.1216">
        <ele>682.19</ele>
        <time>2021-11-20T12:05:25Z</time>
      </trkpt>
      <trkpt lat="45.42307" lon="4.12162">
        <ele>679.79</ele>
        <time>2021-11-20T12:06:00Z</time>
      </trkpt>
      <trkpt lat="45.42304" lon="4.12162">
        <ele>674.98</ele>
        <time>2021-11-20T12:06:24Z</time>
      </trkpt>
      <trkpt lat="45.423" lon="4.1216">
        <ele>674.98</ele>
        <time>2021-11-20T12:06:55Z</time>
      </trkpt>
      <trkpt lat="45.42303" lon="4.12159">
        <ele>674.98</ele>
        <time>2021-11-20T12:07:30Z</time>
      </trkpt>
      <trkpt lat="45.42305" lon="4.1216">
        <ele>674.5</ele>
        <time>2021-11-20T12:07:57Z</time>
      </trkpt>
      <trkpt lat="45.423" lon="4.12154">
        <ele>678.83</ele>
        <time>2021-11-20T12:08:34Z</time>
      </trkpt>
      <trkpt lat="45.42303" lon="4.1216">
        <ele>676.42</ele>
        <time>2021-11-20T12:09:09Z</time>
      </trkpt>
      <trkpt lat="45.42314" lon="4.12161">
        <ele>670.66</ele>
        <time>2021-11-20T12:09:48Z</time>
      </trkpt>
      <trkpt lat="45.42307" lon="4.12165">
        <ele>674.5</ele>
        <time>2021-11-20T12:10:27Z</time>
      </trkpt>
      <trkpt lat="45.42305" lon="4.12163">
        <ele>675.94</ele>
        <time>2021-11-20T12:11:00Z</time>
      </trkpt>
      <trkpt lat="45.42306" lon="4.12162">
        <ele>679.31</ele>
        <time>2021-11-20T12:11:38Z</time>
      </trkpt>
      <trkpt lat="45.42307" lon="4.12164">
        <ele>676.91</ele>
        <time>2021-11-20T12:12:14Z</time>
      </trkpt>
      <trkpt lat="45.42308" lon="4.12163">
        <ele>676.42</ele>
        <time>2021-11-20T12:12:55Z</time>
      </trkpt>
      <trkpt lat="45.42306" lon="4.12158">
        <ele>675.94</ele>
        <time>2021-11-20T12:13:34Z</time>
      </trkpt>
      <trkpt lat="45.42301" lon="4.12154">
        <ele>680.27</ele>
        <time>2021-11-20T12:14:13Z</time>
      </trkpt>
      <trkpt lat="45.42303" lon="4.12159">
        <ele>678.83</ele>
        <time>2021-11-20T12:14:48Z</time>
      </trkpt>
      <trkpt lat="45.423" lon="4.1216">
        <ele>677.39</ele>
        <time>2021-11-20T12:15:26Z</time>
      </trkpt>
      <trkpt lat="45.42305" lon="4.12162">
        <ele>674.98</ele>
        <time>2021-11-20T12:15:58Z</time>
      </trkpt>
      <trkpt lat="45.42307" lon="4.12162">
        <ele>672.58</ele>
        <time>2021-11-20T12:16:28Z</time>
      </trkpt>
      <trkpt lat="45.42306" lon="4.12163">
        <ele>671.62</ele>
        <time>2021-11-20T12:17:00Z</time>
      </trkpt>
      <trkpt lat="45.42303" lon="4.12157">
        <ele>674.02</ele>
        <time>2021-11-20T12:17:40Z</time>
      </trkpt>
      <trkpt lat="45.42302" lon="4.12163">
        <ele>676.42</ele>
        <time>2021-11-20T12:18:12Z</time>
      </trkpt>
      <trkpt lat="45.42303" lon="4.1217">
        <ele>674.5</ele>
        <time>2021-11-20T12:18:50Z</time>
      </trkpt>
      <trkpt lat="45.42306" lon="4.12165">
        <ele>670.66</ele>
        <time>2021-11-20T12:19:30Z</time>
      </trkpt>
      <trkpt lat="45.42306" lon="4.12167">
        <ele>671.62</ele>
        <time>2021-11-20T12:20:10Z</time>
      </trkpt>
      <trkpt lat="45.42303" lon="4.12167">
        <ele>671.62</ele>
        <time>2021-11-20T12:20:43Z</time>
      </trkpt>
      <trkpt lat="45.42307" lon="4.12164">
        <ele>676.91</ele>
        <time>2021-11-20T12:21:20Z</time>
      </trkpt>
      <trkpt lat="45.42301" lon="4.12165">
        <ele>672.1</ele>
        <time>2021-11-20T12:21:58Z</time>
      </trkpt>
      <trkpt lat="45.42307" lon="4.12165">
        <ele>674.98</ele>
        <time>2021-11-20T12:22:35Z</time>
      </trkpt>
      <trkpt lat="45.42307" lon="4.12161">
        <ele>678.83</ele>
        <time>2021-11-20T12:23:13Z</time>
      </trkpt>
      <trkpt lat="45.42303" lon="4.12164">
        <ele>677.87</ele>
        <time>2021-11-20T12:23:48Z</time>
      </trkpt>
      <trkpt lat="45.42303" lon="4.12167">
        <ele>674.5</ele>
        <time>2021-11-20T12:24:23Z</time>
      </trkpt>
      <trkpt lat="45.42303" lon="4.12164">
        <ele>674.5</ele>
        <time>2021-11-20T12:24:57Z</time>
      </trkpt>
      <trkpt lat="45.423" lon="4.12163">
        <ele>675.46</ele>
        <time>2021-11-20T12:25:31Z</time>
      </trkpt>
      <trkpt lat="45.42304" lon="4.12166">
        <ele>674.5</ele>
        <time>2021-11-20T12:26:02Z</time>
      </trkpt>
      <trkpt lat="45.423" lon="4.12161">
        <ele>677.39</ele>
        <time>2021-11-20T12:26:27Z</time>
      </trkpt>
      <trkpt lat="45.42303" lon="4.12161">
        <ele>677.87</ele>
        <time>2021-11-20T12:26:59Z</time>
      </trkpt>
      <trkpt lat="45.42309" lon="4.12161">
        <ele>678.35</ele>
        <time>2021-11-20T12:27:30Z</time>
      </trkpt>
      <trkpt lat="45.4231" lon="4.12161">
        <ele>678.35</ele>
        <time>2021-11-20T12:28:06Z</time>
      </trkpt>
      <trkpt lat="45.42308" lon="4.12164">
        <ele>680.27</ele>
        <time>2021-11-20T12:28:36Z</time>
      </trkpt>
      <trkpt lat="45.42307" lon="4.12166">
        <ele>678.35</ele>
        <time>2021-11-20T12:29:12Z</time>
      </trkpt>
      <trkpt lat="45.42308" lon="4.12166">
        <ele>679.79</ele>
        <time>2021-11-20T12:29:36Z</time>
      </trkpt>
      <trkpt lat="45.42313" lon="4.12166">
        <ele>679.79</ele>
        <time>2021-11-20T12:30:04Z</time>
      </trkpt>
      <trkpt lat="45.42308" lon="4.12165">
        <ele>684.6</ele>
        <time>2021-11-20T12:30:42Z</time>
      </trkpt>
      <trkpt lat="45.42308" lon="4.12164">
        <ele>683.63</ele>
        <time>2021-11-20T12:31:11Z</time>
      </trkpt>
      <trkpt lat="45.42306" lon="4.12164">
        <ele>681.71</ele>
        <time>2021-11-20T12:31:45Z</time>
      </trkpt>
      <trkpt lat="45.42304" lon="4.12162">
        <ele>680.27</ele>
        <time>2021-11-20T12:32:20Z</time>
      </trkpt>
      <trkpt lat="45.42307" lon="4.12165">
        <ele>679.79</ele>
        <time>2021-11-20T12:32:52Z</time>
      </trkpt>
      <trkpt lat="45.42307" lon="4.12164">
        <ele>679.79</ele>
        <time>2021-11-20T12:33:22Z</time>
      </trkpt>
      <trkpt lat="45.42308" lon="4.12168">
        <ele>668.25</ele>
        <time>2021-11-20T12:33:57Z</time>
      </trkpt>
      <trkpt lat="45.42306" lon="4.12165">
        <ele>669.7</ele>
        <time>2021-11-20T12:34:31Z</time>
      </trkpt>
      <trkpt lat="45.42306" lon="4.12167">
        <ele>670.66</ele>
        <time>2021-11-20T12:34:54Z</time>
      </trkpt>
      <trkpt lat="45.42308" lon="4.12166">
        <ele>669.7</ele>
        <time>2021-11-20T12:35:06Z</time>
      </trkpt>
      <trkpt lat="45.42314" lon="4.12166">
        <ele>669.22</ele>
        <time>2021-11-20T12:35:28Z</time>
      </trkpt>
      <trkpt lat="45.42319" lon="4.1216">
        <ele>670.18</ele>
        <time>2021-11-20T12:35:41Z</time>
      </trkpt>
      <trkpt lat="45.42315" lon="4.12155">
        <ele>674.02</ele>
        <time>2021-11-20T12:35:55Z</time>
      </trkpt>
      <trkpt lat="45.42315" lon="4.12157">
        <ele>681.23</ele>
        <time>2021-11-20T12:36:15Z</time>
      </trkpt>
      <trkpt lat="45.42319" lon="4.12155">
        <ele>677.87</ele>
        <time>2021-11-20T12:36:29Z</time>
      </trkpt>
      <trkpt lat="45.42319" lon="4.1215">
        <ele>674.98</ele>
        <time>2021-11-20T12:36:53Z</time>
      </trkpt>
      <trkpt lat="45.42323" lon="4.1216">
        <ele>671.14</ele>
        <time>2021-11-20T12:37:09Z</time>
      </trkpt>
      <trkpt lat="45.4232" lon="4.12158">
        <ele>667.77</ele>
        <time>2021-11-20T12:37:27Z</time>
      </trkpt>
      <trkpt lat="45.42319" lon="4.12155">
        <ele>664.89</ele>
        <time>2021-11-20T12:37:56Z</time>
      </trkpt>
      <trkpt lat="45.42323" lon="4.12161">
        <ele>663.45</ele>
        <time>2021-11-20T12:38:28Z</time>
      </trkpt>
      <trkpt lat="45.42326" lon="4.12165">
        <ele>665.85</ele>
        <time>2021-11-20T12:38:56Z</time>
      </trkpt>
      <trkpt lat="45.4232" lon="4.12156">
        <ele>667.77</ele>
        <time>2021-11-20T12:39:18Z</time>
      </trkpt>
      <trkpt lat="45.4232" lon="4.12137">
        <ele>668.25</ele>
        <time>2021-11-20T12:39:32Z</time>
      </trkpt>
      <trkpt lat="45.42324" lon="4.12123">
        <ele>667.77</ele>
        <time>2021-11-20T12:39:46Z</time>
      </trkpt>
      <trkpt lat="45.42329" lon="4.1212">
        <ele>667.77</ele>
        <time>2021-11-20T12:40:03Z</time>
      </trkpt>
      <trkpt lat="45.42332" lon="4.12126">
        <ele>665.37</ele>
        <time>2021-11-20T12:40:15Z</time>
      </trkpt>
      <trkpt lat="45.42333" lon="4.12129">
        <ele>664.89</ele>
        <time>2021-11-20T12:40:48Z</time>
      </trkpt>
      <trkpt lat="45.42331" lon="4.1213">
        <ele>665.85</ele>
        <time>2021-11-20T12:41:12Z</time>
      </trkpt>
      <trkpt lat="45.42326" lon="4.12126">
        <ele>666.81</ele>
        <time>2021-11-20T12:41:33Z</time>
      </trkpt>
      <trkpt lat="45.42321" lon="4.12131">
        <ele>670.66</ele>
        <time>2021-11-20T12:41:45Z</time>
      </trkpt>
      <trkpt lat="45.42317" lon="4.12144">
        <ele>670.18</ele>
        <time>2021-11-20T12:41:57Z</time>
      </trkpt>
      <trkpt lat="45.42318" lon="4.12151">
        <ele>670.18</ele>
        <time>2021-11-20T12:42:02Z</time>
      </trkpt>
      <trkpt lat="45.42318" lon="4.12156">
        <ele>669.22</ele>
        <time>2021-11-20T12:42:15Z</time>
      </trkpt>
      <trkpt lat="45.42322" lon="4.12154">
        <ele>669.7</ele>
        <time>2021-11-20T12:42:38Z</time>
      </trkpt>
      <trkpt lat="45.42323" lon="4.12155">
        <ele>668.73</ele>
        <time>2021-11-20T12:42:58Z</time>
      </trkpt>
      <trkpt lat="45.42323" lon="4.12159">
        <ele>667.29</ele>
        <time>2021-11-20T12:43:12Z</time>
      </trkpt>
      <trkpt lat="45.42323" lon="4.12157">
        <ele>667.77</ele>
        <time>2021-11-20T12:43:26Z</time>
      </trkpt>
      <trkpt lat="45.42322" lon="4.12155">
        <ele>667.29</ele>
        <time>2021-11-20T12:43:43Z</time>
      </trkpt>
      <trkpt lat="45.42321" lon="4.12154">
        <ele>667.77</ele>
        <time>2021-11-20T12:44:05Z</time>
      </trkpt>
      <trkpt lat="45.42316" lon="4.12149">
        <ele>669.22</ele>
        <time>2021-11-20T12:44:23Z</time>
      </trkpt>
      <trkpt lat="45.42316" lon="4.12145">
        <ele>669.22</ele>
        <time>2021-11-20T12:44:29Z</time>
      </trkpt>
      <trkpt lat="45.4232" lon="4.12133">
        <ele>668.73</ele>
        <time>2021-11-20T12:44:40Z</time>
      </trkpt>
      <trkpt lat="45.42326" lon="4.1212">
        <ele>668.73</ele>
        <time>2021-11-20T12:44:53Z</time>
      </trkpt>
      <trkpt lat="45.42324" lon="4.12121">
        <ele>670.18</ele>
        <time>2021-11-20T12:45:06Z</time>
      </trkpt>
      <trkpt lat="45.42322" lon="4.12115">
        <ele>669.7</ele>
        <time>2021-11-20T12:45:18Z</time>
      </trkpt>
      <trkpt lat="45.42323" lon="4.12115">
        <ele>668.73</ele>
        <time>2021-11-20T12:45:32Z</time>
      </trkpt>
      <trkpt lat="45.42324" lon="4.12116">
        <ele>669.22</ele>
        <time>2021-11-20T12:45:47Z</time>
      </trkpt>
      <trkpt lat="45.42323" lon="4.1212">
        <ele>669.7</ele>
        <time>2021-11-20T12:46:05Z</time>
      </trkpt>
      <trkpt lat="45.42329" lon="4.12118">
        <ele>670.18</ele>
        <time>2021-11-20T12:46:12Z</time>
      </trkpt>
      <trkpt lat="45.42336" lon="4.12107">
        <ele>670.66</ele>
        <time>2021-11-20T12:46:25Z</time>
      </trkpt>
      <trkpt lat="45.42347" lon="4.12097">
        <ele>671.62</ele>
        <time>2021-11-20T12:46:39Z</time>
      </trkpt>
      <trkpt lat="45.4235" lon="4.1209">
        <ele>673.06</ele>
        <time>2021-11-20T12:46:58Z</time>
      </trkpt>
      <trkpt lat="45.42365" lon="4.12071">
        <ele>673.06</ele>
        <time>2021-11-20T12:47:15Z</time>
      </trkpt>
      <trkpt lat="45.42383" lon="4.12052">
        <ele>670.66</ele>
        <time>2021-11-20T12:47:30Z</time>
      </trkpt>
      <trkpt lat="45.42406" lon="4.12035">
        <ele>666.81</ele>
        <time>2021-11-20T12:47:46Z</time>
      </trkpt>
      <trkpt lat="45.42429" lon="4.12027">
        <ele>663.93</ele>
        <time>2021-11-20T12:48:01Z</time>
      </trkpt>
      <trkpt lat="45.42449" lon="4.12022">
        <ele>662.49</ele>
        <time>2021-11-20T12:48:13Z</time>
      </trkpt>
      <trkpt lat="45.42471" lon="4.12028">
        <ele>656.24</ele>
        <time>2021-11-20T12:48:28Z</time>
      </trkpt>
      <trkpt lat="45.42491" lon="4.12032">
        <ele>650.47</ele>
        <time>2021-11-20T12:48:42Z</time>
      </trkpt>
      <trkpt lat="45.42516" lon="4.12046">
        <ele>646.14</ele>
        <time>2021-11-20T12:48:59Z</time>
      </trkpt>
      <trkpt lat="45.42537" lon="4.12055">
        <ele>646.62</ele>
        <time>2021-11-20T12:49:14Z</time>
      </trkpt>
      <trkpt lat="45.42565" lon="4.12069">
        <ele>648.55</ele>
        <time>2021-11-20T12:49:32Z</time>
      </trkpt>
      <trkpt lat="45.42587" lon="4.12079">
        <ele>645.66</ele>
        <time>2021-11-20T12:49:47Z</time>
      </trkpt>
      <trkpt lat="45.42607" lon="4.1209">
        <ele>644.22</ele>
        <time>2021-11-20T12:50:02Z</time>
      </trkpt>
      <trkpt lat="45.42627" lon="4.12096">
        <ele>641.34</ele>
        <time>2021-11-20T12:50:16Z</time>
      </trkpt>
      <trkpt lat="45.42649" lon="4.12095">
        <ele>638.93</ele>
        <time>2021-11-20T12:50:31Z</time>
      </trkpt>
      <trkpt lat="45.42677" lon="4.12107">
        <ele>634.61</ele>
        <time>2021-11-20T12:50:48Z</time>
      </trkpt>
      <trkpt lat="45.42698" lon="4.1211">
        <ele>625.96</ele>
        <time>2021-11-20T12:51:04Z</time>
      </trkpt>
      <trkpt lat="45.42722" lon="4.12105">
        <ele>617.78</ele>
        <time>2021-11-20T12:51:23Z</time>
      </trkpt>
      <trkpt lat="45.42728" lon="4.12099">
        <ele>615.86</ele>
        <time>2021-11-20T12:51:28Z</time>
      </trkpt>
      <trkpt lat="45.42743" lon="4.12098">
        <ele>613.94</ele>
        <time>2021-11-20T12:51:37Z</time>
      </trkpt>
      <trkpt lat="45.42744" lon="4.12118">
        <ele>614.9</ele>
        <time>2021-11-20T12:51:51Z</time>
      </trkpt>
      <trkpt lat="45.42739" lon="4.12136">
        <ele>615.38</ele>
        <time>2021-11-20T12:52:00Z</time>
      </trkpt>
      <trkpt lat="45.42731" lon="4.12168">
        <ele>620.67</ele>
        <time>2021-11-20T12:52:15Z</time>
      </trkpt>
      <trkpt lat="45.42723" lon="4.12195">
        <ele>622.11</ele>
        <time>2021-11-20T12:52:31Z</time>
      </trkpt>
      <trkpt lat="45.42716" lon="4.12228">
        <ele>620.67</ele>
        <time>2021-11-20T12:52:48Z</time>
      </trkpt>
      <trkpt lat="45.42702" lon="4.12262">
        <ele>620.19</ele>
        <time>2021-11-20T12:53:04Z</time>
      </trkpt>
      <trkpt lat="45.42688" lon="4.12295">
        <ele>618.26</ele>
        <time>2021-11-20T12:53:22Z</time>
      </trkpt>
      <trkpt lat="45.42678" lon="4.12319">
        <ele>614.9</ele>
        <time>2021-11-20T12:53:36Z</time>
      </trkpt>
      <trkpt lat="45.42669" lon="4.12342">
        <ele>609.61</ele>
        <time>2021-11-20T12:53:50Z</time>
      </trkpt>
      <trkpt lat="45.42657" lon="4.1236">
        <ele>604.33</ele>
        <time>2021-11-20T12:54:01Z</time>
      </trkpt>
      <trkpt lat="45.42656" lon="4.12367">
        <ele>602.4</ele>
        <time>2021-11-20T12:54:06Z</time>
      </trkpt>
      <trkpt lat="45.42672" lon="4.12407">
        <ele>601.92</ele>
        <time>2021-11-20T12:54:23Z</time>
      </trkpt>
      <trkpt lat="45.42695" lon="4.12428">
        <ele>601.92</ele>
        <time>2021-11-20T12:54:40Z</time>
      </trkpt>
      <trkpt lat="45.42713" lon="4.12454">
        <ele>606.25</ele>
        <time>2021-11-20T12:54:57Z</time>
      </trkpt>
      <trkpt lat="45.42732" lon="4.12487">
        <ele>612.5</ele>
        <time>2021-11-20T12:55:18Z</time>
      </trkpt>
      <trkpt lat="45.42752" lon="4.12517">
        <ele>617.3</ele>
        <time>2021-11-20T12:55:38Z</time>
      </trkpt>
      <trkpt lat="45.42774" lon="4.12548">
        <ele>619.23</ele>
        <time>2021-11-20T12:55:53Z</time>
      </trkpt>
      <trkpt lat="45.42797" lon="4.12579">
        <ele>620.19</ele>
        <time>2021-11-20T12:56:12Z</time>
      </trkpt>
      <trkpt lat="45.4282" lon="4.12591">
        <ele>623.07</ele>
        <time>2021-11-20T12:56:29Z</time>
      </trkpt>
      <trkpt lat="45.42845" lon="4.12602">
        <ele>625.96</ele>
        <time>2021-11-20T12:56:47Z</time>
      </trkpt>
      <trkpt lat="45.42869" lon="4.12613">
        <ele>627.88</ele>
        <time>2021-11-20T12:57:05Z</time>
      </trkpt>
      <trkpt lat="45.42894" lon="4.12618">
        <ele>628.36</ele>
        <time>2021-11-20T12:57:23Z</time>
      </trkpt>
      <trkpt lat="45.4292" lon="4.1263">
        <ele>626.92</ele>
        <time>2021-11-20T12:57:40Z</time>
      </trkpt>
      <trkpt lat="45.42942" lon="4.1265">
        <ele>626.92</ele>
        <time>2021-11-20T12:57:59Z</time>
      </trkpt>
      <trkpt lat="45.42961" lon="4.12677">
        <ele>623.07</ele>
        <time>2021-11-20T12:58:15Z</time>
      </trkpt>
      <trkpt lat="45.42974" lon="4.12705">
        <ele>618.26</ele>
        <time>2021-11-20T12:58:31Z</time>
      </trkpt>
      <trkpt lat="45.42979" lon="4.12731">
        <ele>614.9</ele>
        <time>2021-11-20T12:58:47Z</time>
      </trkpt>
      <trkpt lat="45.42979" lon="4.12764">
        <ele>610.57</ele>
        <time>2021-11-20T12:59:04Z</time>
      </trkpt>
      <trkpt lat="45.42976" lon="4.12801">
        <ele>608.17</ele>
        <time>2021-11-20T12:59:21Z</time>
      </trkpt>
      <trkpt lat="45.42973" lon="4.12835">
        <ele>604.33</ele>
        <time>2021-11-20T12:59:35Z</time>
      </trkpt>
      <trkpt lat="45.4297" lon="4.12873">
        <ele>601.44</ele>
        <time>2021-11-20T12:59:52Z</time>
      </trkpt>
      <trkpt lat="45.42974" lon="4.1291">
        <ele>597.6</ele>
        <time>2021-11-20T13:00:07Z</time>
      </trkpt>
      <trkpt lat="45.42983" lon="4.1294">
        <ele>598.08</ele>
        <time>2021-11-20T13:00:21Z</time>
      </trkpt>
      <trkpt lat="45.42995" lon="4.12979">
        <ele>603.36</ele>
        <time>2021-11-20T13:00:40Z</time>
      </trkpt>
      <trkpt lat="45.43013" lon="4.13006">
        <ele>608.17</ele>
        <time>2021-11-20T13:00:57Z</time>
      </trkpt>
      <trkpt lat="45.43016" lon="4.13008">
        <ele>608.65</ele>
        <time>2021-11-20T13:01:07Z</time>
      </trkpt>
      <trkpt lat="45.43018" lon="4.13009">
        <ele>608.65</ele>
        <time>2021-11-20T13:01:11Z</time>
      </trkpt>
      <trkpt lat="45.43042" lon="4.13018">
        <ele>608.17</ele>
        <time>2021-11-20T13:01:28Z</time>
      </trkpt>
      <trkpt lat="45.43067" lon="4.1302">
        <ele>609.61</ele>
        <time>2021-11-20T13:01:43Z</time>
      </trkpt>
      <trkpt lat="45.43096" lon="4.13037">
        <ele>613.94</ele>
        <time>2021-11-20T13:02:02Z</time>
      </trkpt>
      <trkpt lat="45.43104" lon="4.1307">
        <ele>614.9</ele>
        <time>2021-11-20T13:02:16Z</time>
      </trkpt>
      <trkpt lat="45.43123" lon="4.13088">
        <ele>614.9</ele>
        <time>2021-11-20T13:02:34Z</time>
      </trkpt>
      <trkpt lat="45.43149" lon="4.13103">
        <ele>612.5</ele>
        <time>2021-11-20T13:02:52Z</time>
      </trkpt>
      <trkpt lat="45.43178" lon="4.13105">
        <ele>607.21</ele>
        <time>2021-11-20T13:03:12Z</time>
      </trkpt>
      <trkpt lat="45.43203" lon="4.1311">
        <ele>600.96</ele>
        <time>2021-11-20T13:03:30Z</time>
      </trkpt>
      <trkpt lat="45.4323" lon="4.13134">
        <ele>596.15</ele>
        <time>2021-11-20T13:03:51Z</time>
      </trkpt>
      <trkpt lat="45.43252" lon="4.13154">
        <ele>593.75</ele>
        <time>2021-11-20T13:04:08Z</time>
      </trkpt>
      <trkpt lat="45.43279" lon="4.13193">
        <ele>588.95</ele>
        <time>2021-11-20T13:04:32Z</time>
      </trkpt>
      <trkpt lat="45.43302" lon="4.1323">
        <ele>581.25</ele>
        <time>2021-11-20T13:04:54Z</time>
      </trkpt>
      <trkpt lat="45.43326" lon="4.13261">
        <ele>577.41</ele>
        <time>2021-11-20T13:05:14Z</time>
      </trkpt>
      <trkpt lat="45.43337" lon="4.13295">
        <ele>575.49</ele>
        <time>2021-11-20T13:05:31Z</time>
      </trkpt>
      <trkpt lat="45.43338" lon="4.13305">
        <ele>576.45</ele>
        <time>2021-11-20T13:05:35Z</time>
      </trkpt>
      <trkpt lat="45.43338" lon="4.13308">
        <ele>577.41</ele>
        <time>2021-11-20T13:05:36Z</time>
      </trkpt>
      <trkpt lat="45.43338" lon="4.13311">
        <ele>577.89</ele>
        <time>2021-11-20T13:05:37Z</time>
      </trkpt>
      <trkpt lat="45.43338" lon="4.13313">
        <ele>578.85</ele>
        <time>2021-11-20T13:05:38Z</time>
      </trkpt>
      <trkpt lat="45.43338" lon="4.13316">
        <ele>578.85</ele>
        <time>2021-11-20T13:05:39Z</time>
      </trkpt>
      <trkpt lat="45.43338" lon="4.13319">
        <ele>578.85</ele>
        <time>2021-11-20T13:05:40Z</time>
      </trkpt>
      <trkpt lat="45.43339" lon="4.13321">
        <ele>578.85</ele>
        <time>2021-11-20T13:05:41Z</time>
      </trkpt>
      <trkpt lat="45.43347" lon="4.13354">
        <ele>575.01</ele>
        <time>2021-11-20T13:05:57Z</time>
      </trkpt>
      <trkpt lat="45.43347" lon="4.13356">
        <ele>574.53</ele>
        <time>2021-11-20T13:05:58Z</time>
      </trkpt>
      <trkpt lat="45.43363" lon="4.13384">
        <ele>568.76</ele>
        <time>2021-11-20T13:06:15Z</time>
      </trkpt>
      <trkpt lat="45.43379" lon="4.13404">
        <ele>570.2</ele>
        <time>2021-11-20T13:06:29Z</time>
      </trkpt>
      <trkpt lat="45.43384" lon="4.13407">
        <ele>570.68</ele>
        <time>2021-11-20T13:06:33Z</time>
      </trkpt>
      <trkpt lat="45.43389" lon="4.13411">
        <ele>572.12</ele>
        <time>2021-11-20T13:06:45Z</time>
      </trkpt>
      <trkpt lat="45.43391" lon="4.13414">
        <ele>573.08</ele>
        <time>2021-11-20T13:07:06Z</time>
      </trkpt>
      <trkpt lat="45.43392" lon="4.13418">
        <ele>573.56</ele>
        <time>2021-11-20T13:07:14Z</time>
      </trkpt>
      <trkpt lat="45.43392" lon="4.1342">
        <ele>573.56</ele>
        <time>2021-11-20T13:07:15Z</time>
      </trkpt>
      <trkpt lat="45.43392" lon="4.13422">
        <ele>573.56</ele>
        <time>2021-11-20T13:07:16Z</time>
      </trkpt>
      <trkpt lat="45.43399" lon="4.13441">
        <ele>573.56</ele>
        <time>2021-11-20T13:07:33Z</time>
      </trkpt>
      <trkpt lat="45.434" lon="4.13441">
        <ele>572.12</ele>
        <time>2021-11-20T13:07:54Z</time>
      </trkpt>
      <trkpt lat="45.43389" lon="4.13429">
        <ele>575.01</ele>
        <time>2021-11-20T13:08:13Z</time>
      </trkpt>
      <trkpt lat="45.43389" lon="4.13427">
        <ele>575.01</ele>
        <time>2021-11-20T13:08:14Z</time>
      </trkpt>
      <trkpt lat="45.43388" lon="4.13423">
        <ele>575.49</ele>
        <time>2021-11-20T13:08:16Z</time>
      </trkpt>
      <trkpt lat="45.43389" lon="4.13421">
        <ele>575.49</ele>
        <time>2021-11-20T13:08:17Z</time>
      </trkpt>
      <trkpt lat="45.43395" lon="4.13417">
        <ele>575.49</ele>
        <time>2021-11-20T13:08:21Z</time>
      </trkpt>
      <trkpt lat="45.4342" lon="4.13413">
        <ele>577.89</ele>
        <time>2021-11-20T13:08:38Z</time>
      </trkpt>
      <trkpt lat="45.43436" lon="4.13402">
        <ele>578.85</ele>
        <time>2021-11-20T13:08:53Z</time>
      </trkpt>
      <trkpt lat="45.4346" lon="4.13379">
        <ele>583.18</ele>
        <time>2021-11-20T13:09:13Z</time>
      </trkpt>
      <trkpt lat="45.43489" lon="4.13353">
        <ele>586.54</ele>
        <time>2021-11-20T13:09:37Z</time>
      </trkpt>
      <trkpt lat="45.43506" lon="4.13317">
        <ele>589.43</ele>
        <time>2021-11-20T13:10:00Z</time>
      </trkpt>
      <trkpt lat="45.43496" lon="4.1328">
        <ele>591.83</ele>
        <time>2021-11-20T13:10:20Z</time>
      </trkpt>
      <trkpt lat="45.4349" lon="4.13237">
        <ele>591.83</ele>
        <time>2021-11-20T13:10:41Z</time>
      </trkpt>
      <trkpt lat="45.43481" lon="4.13186">
        <ele>592.31</ele>
        <time>2021-11-20T13:11:06Z</time>
      </trkpt>
      <trkpt lat="45.43477" lon="4.13129">
        <ele>592.31</ele>
        <time>2021-11-20T13:11:32Z</time>
      </trkpt>
      <trkpt lat="45.43479" lon="4.13093">
        <ele>589.43</ele>
        <time>2021-11-20T13:11:49Z</time>
      </trkpt>
      <trkpt lat="45.4348" lon="4.13048">
        <ele>589.91</ele>
        <time>2021-11-20T13:12:07Z</time>
      </trkpt>
      <trkpt lat="45.4348" lon="4.13011">
        <ele>589.91</ele>
        <time>2021-11-20T13:12:24Z</time>
      </trkpt>
      <trkpt lat="45.43483" lon="4.12974">
        <ele>588.46</ele>
        <time>2021-11-20T13:12:41Z</time>
      </trkpt>
      <trkpt lat="45.43463" lon="4.12938">
        <ele>589.91</ele>
        <time>2021-11-20T13:13:01Z</time>
      </trkpt>
      <trkpt lat="45.43451" lon="4.12892">
        <ele>592.79</ele>
        <time>2021-11-20T13:13:23Z</time>
      </trkpt>
      <trkpt lat="45.43451" lon="4.12856">
        <ele>595.19</ele>
        <time>2021-11-20T13:13:39Z</time>
      </trkpt>
      <trkpt lat="45.43447" lon="4.12825">
        <ele>595.19</ele>
        <time>2021-11-20T13:13:56Z</time>
      </trkpt>
      <trkpt lat="45.43431" lon="4.12804">
        <ele>595.19</ele>
        <time>2021-11-20T13:14:10Z</time>
      </trkpt>
      <trkpt lat="45.43417" lon="4.12774">
        <ele>597.6</ele>
        <time>2021-11-20T13:14:29Z</time>
      </trkpt>
      <trkpt lat="45.43413" lon="4.12721">
        <ele>600.96</ele>
        <time>2021-11-20T13:14:49Z</time>
      </trkpt>
      <trkpt lat="45.4341" lon="4.12673">
        <ele>603.36</ele>
        <time>2021-11-20T13:15:10Z</time>
      </trkpt>
      <trkpt lat="45.43418" lon="4.1266">
        <ele>604.81</ele>
        <time>2021-11-20T13:15:18Z</time>
      </trkpt>
      <trkpt lat="45.4342" lon="4.1266">
        <ele>604.81</ele>
        <time>2021-11-20T13:15:19Z</time>
      </trkpt>
      <trkpt lat="45.43449" lon="4.12673">
        <ele>609.13</ele>
        <time>2021-11-20T13:15:40Z</time>
      </trkpt>
      <trkpt lat="45.43458" lon="4.12668">
        <ele>611.06</ele>
        <time>2021-11-20T13:15:48Z</time>
      </trkpt>
      <trkpt lat="45.43452" lon="4.12644">
        <ele>616.34</ele>
        <time>2021-11-20T13:16:03Z</time>
      </trkpt>
      <trkpt lat="45.43449" lon="4.12594">
        <ele>621.63</ele>
        <time>2021-11-20T13:16:25Z</time>
      </trkpt>
      <trkpt lat="45.43449" lon="4.12555">
        <ele>624.03</ele>
        <time>2021-11-20T13:16:44Z</time>
      </trkpt>
      <trkpt lat="45.43465" lon="4.12524">
        <ele>622.59</ele>
        <time>2021-11-20T13:17:01Z</time>
      </trkpt>
      <trkpt lat="45.43493" lon="4.12506">
        <ele>621.63</ele>
        <time>2021-11-20T13:17:18Z</time>
      </trkpt>
      <trkpt lat="45.43518" lon="4.12487">
        <ele>623.55</ele>
        <time>2021-11-20T13:17:38Z</time>
      </trkpt>
      <trkpt lat="45.4353" lon="4.12456">
        <ele>626.44</ele>
        <time>2021-11-20T13:17:58Z</time>
      </trkpt>
      <trkpt lat="45.43531" lon="4.12426">
        <ele>627.88</ele>
        <time>2021-11-20T13:18:13Z</time>
      </trkpt>
      <trkpt lat="45.43534" lon="4.12395">
        <ele>627.4</ele>
        <time>2021-11-20T13:18:28Z</time>
      </trkpt>
      <trkpt lat="45.43546" lon="4.12351">
        <ele>626.92</ele>
        <time>2021-11-20T13:18:48Z</time>
      </trkpt>
      <trkpt lat="45.43576" lon="4.1232">
        <ele>626.92</ele>
        <time>2021-11-20T13:19:11Z</time>
      </trkpt>
      <trkpt lat="45.43609" lon="4.12293">
        <ele>628.36</ele>
        <time>2021-11-20T13:19:33Z</time>
      </trkpt>
      <trkpt lat="45.43617" lon="4.12286">
        <ele>628.84</ele>
        <time>2021-11-20T13:19:39Z</time>
      </trkpt>
      <trkpt lat="45.43619" lon="4.12286">
        <ele>629.32</ele>
        <time>2021-11-20T13:19:40Z</time>
      </trkpt>
      <trkpt lat="45.43621" lon="4.12286">
        <ele>629.32</ele>
        <time>2021-11-20T13:19:41Z</time>
      </trkpt>
      <trkpt lat="45.43623" lon="4.12285">
        <ele>629.8</ele>
        <time>2021-11-20T13:19:42Z</time>
      </trkpt>
      <trkpt lat="45.43624" lon="4.12284">
        <ele>629.8</ele>
        <time>2021-11-20T13:19:43Z</time>
      </trkpt>
      <trkpt lat="45.43626" lon="4.12281">
        <ele>631.24</ele>
        <time>2021-11-20T13:19:48Z</time>
      </trkpt>
      <trkpt lat="45.43626" lon="4.1228">
        <ele>631.24</ele>
        <time>2021-11-20T13:19:49Z</time>
      </trkpt>
      <trkpt lat="45.43627" lon="4.12278">
        <ele>631.72</ele>
        <time>2021-11-20T13:19:50Z</time>
      </trkpt>
      <trkpt lat="45.43649" lon="4.12258">
        <ele>630.76</ele>
        <time>2021-11-20T13:20:08Z</time>
      </trkpt>
      <trkpt lat="45.43675" lon="4.12238">
        <ele>628.36</ele>
        <time>2021-11-20T13:20:28Z</time>
      </trkpt>
      <trkpt lat="45.43699" lon="4.12228">
        <ele>624.99</ele>
        <time>2021-11-20T13:20:45Z</time>
      </trkpt>
      <trkpt lat="45.43725" lon="4.12223">
        <ele>622.11</ele>
        <time>2021-11-20T13:21:03Z</time>
      </trkpt>
      <trkpt lat="45.43754" lon="4.12216">
        <ele>620.19</ele>
        <time>2021-11-20T13:21:23Z</time>
      </trkpt>
      <trkpt lat="45.4379" lon="4.12208">
        <ele>617.3</ele>
        <time>2021-11-20T13:21:46Z</time>
      </trkpt>
      <trkpt lat="45.43813" lon="4.12204">
        <ele>616.82</ele>
        <time>2021-11-20T13:22:03Z</time>
      </trkpt>
      <trkpt lat="45.43842" lon="4.12193">
        <ele>616.34</ele>
        <time>2021-11-20T13:22:23Z</time>
      </trkpt>
      <trkpt lat="45.43874" lon="4.12169">
        <ele>620.19</ele>
        <time>2021-11-20T13:22:47Z</time>
      </trkpt>
      <trkpt lat="45.4391" lon="4.12145">
        <ele>623.55</ele>
        <time>2021-11-20T13:23:14Z</time>
      </trkpt>
      <trkpt lat="45.43928" lon="4.12124">
        <ele>626.44</ele>
        <time>2021-11-20T13:23:29Z</time>
      </trkpt>
      <trkpt lat="45.43955" lon="4.12097">
        <ele>628.84</ele>
        <time>2021-11-20T13:23:53Z</time>
      </trkpt>
      <trkpt lat="45.43981" lon="4.12083">
        <ele>629.8</ele>
        <time>2021-11-20T13:24:13Z</time>
      </trkpt>
      <trkpt lat="45.44013" lon="4.12078">
        <ele>630.28</ele>
        <time>2021-11-20T13:24:36Z</time>
      </trkpt>
      <trkpt lat="45.44033" lon="4.12057">
        <ele>631.24</ele>
        <time>2021-11-20T13:24:54Z</time>
      </trkpt>
      <trkpt lat="45.44054" lon="4.12024">
        <ele>629.8</ele>
        <time>2021-11-20T13:25:18Z</time>
      </trkpt>
      <trkpt lat="45.44075" lon="4.11996">
        <ele>629.8</ele>
        <time>2021-11-20T13:25:40Z</time>
      </trkpt>
      <trkpt lat="45.44094" lon="4.1196">
        <ele>630.28</ele>
        <time>2021-11-20T13:26:02Z</time>
      </trkpt>
      <trkpt lat="45.44106" lon="4.11916">
        <ele>632.68</ele>
        <time>2021-11-20T13:26:24Z</time>
      </trkpt>
      <trkpt lat="45.44127" lon="4.11889">
        <ele>637.01</ele>
        <time>2021-11-20T13:26:44Z</time>
      </trkpt>
      <trkpt lat="45.44132" lon="4.11849">
        <ele>639.41</ele>
        <time>2021-11-20T13:27:04Z</time>
      </trkpt>
      <trkpt lat="45.4414" lon="4.1184">
        <ele>639.89</ele>
        <time>2021-11-20T13:27:14Z</time>
      </trkpt>
      <trkpt lat="45.44164" lon="4.11864">
        <ele>639.89</ele>
        <time>2021-11-20T13:27:36Z</time>
      </trkpt>
      <trkpt lat="45.4417" lon="4.11863">
        <ele>640.86</ele>
        <time>2021-11-20T13:27:41Z</time>
      </trkpt>
      <trkpt lat="45.44196" lon="4.11844">
        <ele>644.7</ele>
        <time>2021-11-20T13:28:00Z</time>
      </trkpt>
      <trkpt lat="45.44227" lon="4.11833">
        <ele>646.14</ele>
        <time>2021-11-20T13:28:21Z</time>
      </trkpt>
      <trkpt lat="45.4424" lon="4.11812">
        <ele>649.03</ele>
        <time>2021-11-20T13:28:37Z</time>
      </trkpt>
      <trkpt lat="45.44238" lon="4.11775">
        <ele>651.43</ele>
        <time>2021-11-20T13:28:57Z</time>
      </trkpt>
      <trkpt lat="45.44238" lon="4.11722">
        <ele>652.87</ele>
        <time>2021-11-20T13:29:20Z</time>
      </trkpt>
      <trkpt lat="45.44248" lon="4.11673">
        <ele>654.8</ele>
        <time>2021-11-20T13:29:43Z</time>
      </trkpt>
      <trkpt lat="45.44262" lon="4.11622">
        <ele>656.24</ele>
        <time>2021-11-20T13:30:06Z</time>
      </trkpt>
      <trkpt lat="45.44279" lon="4.11576">
        <ele>658.64</ele>
        <time>2021-11-20T13:30:31Z</time>
      </trkpt>
      <trkpt lat="45.44292" lon="4.11528">
        <ele>662.49</ele>
        <time>2021-11-20T13:30:58Z</time>
      </trkpt>
      <trkpt lat="45.44292" lon="4.11494">
        <ele>667.77</ele>
        <time>2021-11-20T13:31:18Z</time>
      </trkpt>
      <trkpt lat="45.44297" lon="4.11441">
        <ele>667.77</ele>
        <time>2021-11-20T13:31:39Z</time>
      </trkpt>
      <trkpt lat="45.44296" lon="4.11433">
        <ele>667.77</ele>
        <time>2021-11-20T13:31:54Z</time>
      </trkpt>
      <trkpt lat="45.44304" lon="4.11415">
        <ele>665.85</ele>
        <time>2021-11-20T13:32:07Z</time>
      </trkpt>
      <trkpt lat="45.44305" lon="4.11414">
        <ele>665.85</ele>
        <time>2021-11-20T13:32:08Z</time>
      </trkpt>
      <trkpt lat="45.44306" lon="4.11413">
        <ele>665.85</ele>
        <time>2021-11-20T13:32:09Z</time>
      </trkpt>
      <trkpt lat="45.44307" lon="4.11412">
        <ele>665.85</ele>
        <time>2021-11-20T13:32:10Z</time>
      </trkpt>
      <trkpt lat="45.44308" lon="4.11412">
        <ele>665.85</ele>
        <time>2021-11-20T13:32:11Z</time>
      </trkpt>
      <trkpt lat="45.44309" lon="4.11411">
        <ele>665.85</ele>
        <time>2021-11-20T13:32:12Z</time>
      </trkpt>
      <trkpt lat="45.44311" lon="4.11411">
        <ele>665.85</ele>
        <time>2021-11-20T13:32:13Z</time>
      </trkpt>
      <trkpt lat="45.44337" lon="4.11402">
        <ele>663.45</ele>
        <time>2021-11-20T13:32:31Z</time>
      </trkpt>
      <trkpt lat="45.44355" lon="4.11376">
        <ele>660.08</ele>
        <time>2021-11-20T13:32:50Z</time>
      </trkpt>
      <trkpt lat="45.44383" lon="4.11356">
        <ele>660.56</ele>
        <time>2021-11-20T13:33:12Z</time>
      </trkpt>
      <trkpt lat="45.44414" lon="4.11348">
        <ele>661.52</ele>
        <time>2021-11-20T13:33:34Z</time>
      </trkpt>
      <trkpt lat="45.44441" lon="4.11339">
        <ele>662.01</ele>
        <time>2021-11-20T13:33:52Z</time>
      </trkpt>
      <trkpt lat="45.44442" lon="4.11341">
        <ele>661.52</ele>
        <time>2021-11-20T13:33:53Z</time>
      </trkpt>
      <trkpt lat="45.44444" lon="4.11343">
        <ele>662.01</ele>
        <time>2021-11-20T13:33:54Z</time>
      </trkpt>
      <trkpt lat="45.44445" lon="4.11345">
        <ele>662.01</ele>
        <time>2021-11-20T13:33:55Z</time>
      </trkpt>
      <trkpt lat="45.44446" lon="4.11346">
        <ele>662.01</ele>
        <time>2021-11-20T13:33:56Z</time>
      </trkpt>
      <trkpt lat="45.44461" lon="4.11351">
        <ele>661.52</ele>
        <time>2021-11-20T13:34:06Z</time>
      </trkpt>
      <trkpt lat="45.44475" lon="4.11349">
        <ele>662.01</ele>
        <time>2021-11-20T13:34:19Z</time>
      </trkpt>
      <trkpt lat="45.44497" lon="4.11345">
        <ele>664.41</ele>
        <time>2021-11-20T13:34:40Z</time>
      </trkpt>
      <trkpt lat="45.44502" lon="4.11335">
        <ele>664.89</ele>
        <time>2021-11-20T13:34:51Z</time>
      </trkpt>
      <trkpt lat="45.44525" lon="4.11314">
        <ele>665.85</ele>
        <time>2021-11-20T13:35:10Z</time>
      </trkpt>
      <trkpt lat="45.44555" lon="4.11298">
        <ele>665.85</ele>
        <time>2021-11-20T13:35:32Z</time>
      </trkpt>
      <trkpt lat="45.44583" lon="4.11288">
        <ele>663.45</ele>
        <time>2021-11-20T13:35:52Z</time>
      </trkpt>
      <trkpt lat="45.44609" lon="4.11276">
        <ele>662.01</ele>
        <time>2021-11-20T13:36:09Z</time>
      </trkpt>
      <trkpt lat="45.44635" lon="4.11249">
        <ele>659.12</ele>
        <time>2021-11-20T13:36:30Z</time>
      </trkpt>
      <trkpt lat="45.44661" lon="4.11222">
        <ele>657.68</ele>
        <time>2021-11-20T13:36:52Z</time>
      </trkpt>
      <trkpt lat="45.44684" lon="4.11201">
        <ele>656.24</ele>
        <time>2021-11-20T13:37:12Z</time>
      </trkpt>
      <trkpt lat="45.44702" lon="4.11185">
        <ele>655.28</ele>
        <time>2021-11-20T13:37:28Z</time>
      </trkpt>
      <trkpt lat="45.44722" lon="4.11178">
        <ele>655.28</ele>
        <time>2021-11-20T13:37:45Z</time>
      </trkpt>
      <trkpt lat="45.44732" lon="4.11211">
        <ele>652.87</ele>
        <time>2021-11-20T13:38:02Z</time>
      </trkpt>
      <trkpt lat="45.44747" lon="4.11259">
        <ele>650.47</ele>
        <time>2021-11-20T13:38:25Z</time>
      </trkpt>
      <trkpt lat="45.44751" lon="4.11296">
        <ele>649.03</ele>
        <time>2021-11-20T13:38:43Z</time>
      </trkpt>
      <trkpt lat="45.44759" lon="4.11337">
        <ele>646.62</ele>
        <time>2021-11-20T13:39:03Z</time>
      </trkpt>
      <trkpt lat="45.44771" lon="4.1139">
        <ele>644.7</ele>
        <time>2021-11-20T13:39:28Z</time>
      </trkpt>
      <trkpt lat="45.44786" lon="4.11446">
        <ele>643.74</ele>
        <time>2021-11-20T13:39:55Z</time>
      </trkpt>
      <trkpt lat="45.44787" lon="4.1145">
        <ele>643.74</ele>
        <time>2021-11-20T13:39:57Z</time>
      </trkpt>
      <trkpt lat="45.44787" lon="4.11452">
        <ele>644.22</ele>
        <time>2021-11-20T13:39:58Z</time>
      </trkpt>
      <trkpt lat="45.44788" lon="4.11454">
        <ele>644.22</ele>
        <time>2021-11-20T13:39:59Z</time>
      </trkpt>
      <trkpt lat="45.44788" lon="4.11456">
        <ele>644.22</ele>
        <time>2021-11-20T13:40:00Z</time>
      </trkpt>
      <trkpt lat="45.44789" lon="4.11459">
        <ele>644.7</ele>
        <time>2021-11-20T13:40:01Z</time>
      </trkpt>
      <trkpt lat="45.44804" lon="4.11504">
        <ele>645.18</ele>
        <time>2021-11-20T13:40:23Z</time>
      </trkpt>
      <trkpt lat="45.44815" lon="4.11551">
        <ele>643.74</ele>
        <time>2021-11-20T13:40:46Z</time>
      </trkpt>
      <trkpt lat="45.4482" lon="4.11569">
        <ele>643.74</ele>
        <time>2021-11-20T13:40:54Z</time>
      </trkpt>
      <trkpt lat="45.44817" lon="4.11596">
        <ele>632.68</ele>
        <time>2021-11-20T13:41:04Z</time>
      </trkpt>
      <trkpt lat="45.44827" lon="4.11626">
        <ele>633.65</ele>
        <time>2021-11-20T13:41:19Z</time>
      </trkpt>
      <trkpt lat="45.44839" lon="4.11657">
        <ele>639.41</ele>
        <time>2021-11-20T13:41:34Z</time>
      </trkpt>
      <trkpt lat="45.44849" lon="4.11688">
        <ele>640.38</ele>
        <time>2021-11-20T13:41:50Z</time>
      </trkpt>
      <trkpt lat="45.44858" lon="4.11722">
        <ele>640.86</ele>
        <time>2021-11-20T13:42:06Z</time>
      </trkpt>
      <trkpt lat="45.44867" lon="4.11758">
        <ele>640.38</ele>
        <time>2021-11-20T13:42:24Z</time>
      </trkpt>
      <trkpt lat="45.44879" lon="4.11801">
        <ele>643.26</ele>
        <time>2021-11-20T13:42:43Z</time>
      </trkpt>
      <trkpt lat="45.44889" lon="4.11835">
        <ele>641.82</ele>
        <time>2021-11-20T13:43:00Z</time>
      </trkpt>
      <trkpt lat="45.44899" lon="4.11877">
        <ele>642.78</ele>
        <time>2021-11-20T13:43:17Z</time>
      </trkpt>
      <trkpt lat="45.44905" lon="4.11912">
        <ele>642.3</ele>
        <time>2021-11-20T13:43:33Z</time>
      </trkpt>
      <trkpt lat="45.44912" lon="4.11951">
        <ele>640.86</ele>
        <time>2021-11-20T13:43:53Z</time>
      </trkpt>
      <trkpt lat="45.44921" lon="4.11991">
        <ele>641.34</ele>
        <time>2021-11-20T13:44:12Z</time>
      </trkpt>
      <trkpt lat="45.44939" lon="4.12014">
        <ele>642.78</ele>
        <time>2021-11-20T13:44:27Z</time>
      </trkpt>
      <trkpt lat="45.44953" lon="4.12036">
        <ele>644.22</ele>
        <time>2021-11-20T13:44:41Z</time>
      </trkpt>
      <trkpt lat="45.44968" lon="4.12061">
        <ele>646.14</ele>
        <time>2021-11-20T13:44:57Z</time>
      </trkpt>
      <trkpt lat="45.44989" lon="4.12089">
        <ele>646.62</ele>
        <time>2021-11-20T13:45:15Z</time>
      </trkpt>
      <trkpt lat="45.44997" lon="4.12123">
        <ele>644.22</ele>
        <time>2021-11-20T13:45:31Z</time>
      </trkpt>
      <trkpt lat="45.44996" lon="4.12162">
        <ele>643.26</ele>
        <time>2021-11-20T13:45:49Z</time>
      </trkpt>
      <trkpt lat="45.44997" lon="4.12206">
        <ele>641.82</ele>
        <time>2021-11-20T13:46:09Z</time>
      </trkpt>
      <trkpt lat="45.44998" lon="4.12243">
        <ele>639.89</ele>
        <time>2021-11-20T13:46:27Z</time>
      </trkpt>
      <trkpt lat="45.45003" lon="4.12277">
        <ele>638.93</ele>
        <time>2021-11-20T13:46:43Z</time>
      </trkpt>
      <trkpt lat="45.45012" lon="4.12313">
        <ele>635.09</ele>
        <time>2021-11-20T13:47:00Z</time>
      </trkpt>
      <trkpt lat="45.45022" lon="4.12346">
        <ele>631.24</ele>
        <time>2021-11-20T13:47:16Z</time>
      </trkpt>
      <trkpt lat="45.45031" lon="4.1238">
        <ele>629.32</ele>
        <time>2021-11-20T13:47:32Z</time>
      </trkpt>
      <trkpt lat="45.45042" lon="4.12416">
        <ele>627.4</ele>
        <time>2021-11-20T13:47:50Z</time>
      </trkpt>
      <trkpt lat="45.45052" lon="4.12451">
        <ele>627.88</ele>
        <time>2021-11-20T13:48:07Z</time>
      </trkpt>
      <trkpt lat="45.45062" lon="4.12487">
        <ele>629.8</ele>
        <time>2021-11-20T13:48:25Z</time>
      </trkpt>
      <trkpt lat="45.4507" lon="4.12522">
        <ele>628.36</ele>
        <time>2021-11-20T13:48:42Z</time>
      </trkpt>
      <trkpt lat="45.45075" lon="4.12563">
        <ele>626.44</ele>
        <time>2021-11-20T13:49:01Z</time>
      </trkpt>
      <trkpt lat="45.45082" lon="4.12601">
        <ele>624.51</ele>
        <time>2021-11-20T13:49:20Z</time>
      </trkpt>
      <trkpt lat="45.45089" lon="4.12634">
        <ele>623.55</ele>
        <time>2021-11-20T13:49:36Z</time>
      </trkpt>
      <trkpt lat="45.45094" lon="4.12667">
        <ele>620.67</ele>
        <time>2021-11-20T13:49:52Z</time>
      </trkpt>
      <trkpt lat="45.45099" lon="4.12704">
        <ele>617.78</ele>
        <time>2021-11-20T13:50:10Z</time>
      </trkpt>
      <trkpt lat="45.45108" lon="4.1274">
        <ele>614.9</ele>
        <time>2021-11-20T13:50:27Z</time>
      </trkpt>
      <trkpt lat="45.45116" lon="4.1277">
        <ele>609.13</ele>
        <time>2021-11-20T13:50:44Z</time>
      </trkpt>
      <trkpt lat="45.45124" lon="4.12803">
        <ele>603.85</ele>
        <time>2021-11-20T13:50:59Z</time>
      </trkpt>
      <trkpt lat="45.45131" lon="4.12838">
        <ele>600.96</ele>
        <time>2021-11-20T13:51:16Z</time>
      </trkpt>
      <trkpt lat="45.45142" lon="4.12868">
        <ele>600.48</ele>
        <time>2021-11-20T13:51:32Z</time>
      </trkpt>
      <trkpt lat="45.45163" lon="4.12891">
        <ele>600</ele>
        <time>2021-11-20T13:51:49Z</time>
      </trkpt>
      <trkpt lat="45.45185" lon="4.12918">
        <ele>600</ele>
        <time>2021-11-20T13:52:08Z</time>
      </trkpt>
      <trkpt lat="45.452" lon="4.12946">
        <ele>600</ele>
        <time>2021-11-20T13:52:23Z</time>
      </trkpt>
      <trkpt lat="45.45214" lon="4.12972">
        <ele>602.88</ele>
        <time>2021-11-20T13:52:39Z</time>
      </trkpt>
      <trkpt lat="45.45239" lon="4.12994">
        <ele>604.33</ele>
        <time>2021-11-20T13:52:59Z</time>
      </trkpt>
      <trkpt lat="45.45264" lon="4.13012">
        <ele>603.85</ele>
        <time>2021-11-20T13:53:15Z</time>
      </trkpt>
      <trkpt lat="45.45269" lon="4.1302">
        <ele>603.36</ele>
        <time>2021-11-20T13:53:20Z</time>
      </trkpt>
      <trkpt lat="45.4527" lon="4.13021">
        <ele>603.36</ele>
        <time>2021-11-20T13:53:21Z</time>
      </trkpt>
      <trkpt lat="45.45293" lon="4.13051">
        <ele>601.44</ele>
        <time>2021-11-20T13:53:41Z</time>
      </trkpt>
      <trkpt lat="45.45296" lon="4.13055">
        <ele>601.44</ele>
        <time>2021-11-20T13:53:44Z</time>
      </trkpt>
      <trkpt lat="45.45296" lon="4.13057">
        <ele>600.96</ele>
        <time>2021-11-20T13:53:45Z</time>
      </trkpt>
      <trkpt lat="45.45297" lon="4.13059">
        <ele>600.96</ele>
        <time>2021-11-20T13:53:46Z</time>
      </trkpt>
      <trkpt lat="45.45313" lon="4.13088">
        <ele>597.6</ele>
        <time>2021-11-20T13:54:03Z</time>
      </trkpt>
      <trkpt lat="45.45329" lon="4.13116">
        <ele>594.71</ele>
        <time>2021-11-20T13:54:20Z</time>
      </trkpt>
      <trkpt lat="45.45347" lon="4.13143">
        <ele>590.87</ele>
        <time>2021-11-20T13:54:37Z</time>
      </trkpt>
      <trkpt lat="45.45367" lon="4.13168">
        <ele>590.87</ele>
        <time>2021-11-20T13:54:53Z</time>
      </trkpt>
      <trkpt lat="45.45387" lon="4.13194">
        <ele>593.27</ele>
        <time>2021-11-20T13:55:11Z</time>
      </trkpt>
      <trkpt lat="45.45404" lon="4.13222">
        <ele>591.83</ele>
        <time>2021-11-20T13:55:27Z</time>
      </trkpt>
      <trkpt lat="45.45421" lon="4.1325">
        <ele>589.43</ele>
        <time>2021-11-20T13:55:45Z</time>
      </trkpt>
      <trkpt lat="45.45421" lon="4.13252">
        <ele>588.95</ele>
        <time>2021-11-20T13:55:46Z</time>
      </trkpt>
      <trkpt lat="45.45422" lon="4.13254">
        <ele>588.95</ele>
        <time>2021-11-20T13:55:47Z</time>
      </trkpt>
      <trkpt lat="45.45433" lon="4.13279">
        <ele>587.5</ele>
        <time>2021-11-20T13:56:00Z</time>
      </trkpt>
      <trkpt lat="45.45434" lon="4.13281">
        <ele>587.5</ele>
        <time>2021-11-20T13:56:01Z</time>
      </trkpt>
      <trkpt lat="45.45435" lon="4.13283">
        <ele>587.02</ele>
        <time>2021-11-20T13:56:02Z</time>
      </trkpt>
      <trkpt lat="45.45435" lon="4.13285">
        <ele>587.02</ele>
        <time>2021-11-20T13:56:03Z</time>
      </trkpt>
      <trkpt lat="45.45436" lon="4.13287">
        <ele>586.54</ele>
        <time>2021-11-20T13:56:04Z</time>
      </trkpt>
      <trkpt lat="45.45437" lon="4.1329">
        <ele>586.54</ele>
        <time>2021-11-20T13:56:05Z</time>
      </trkpt>
      <trkpt lat="45.45438" lon="4.13291">
        <ele>586.06</ele>
        <time>2021-11-20T13:56:06Z</time>
      </trkpt>
      <trkpt lat="45.45455" lon="4.13311">
        <ele>582.22</ele>
        <time>2021-11-20T13:56:21Z</time>
      </trkpt>
      <trkpt lat="45.45463" lon="4.13317">
        <ele>580.29</ele>
        <time>2021-11-20T13:56:27Z</time>
      </trkpt>
      <trkpt lat="45.45471" lon="4.1334">
        <ele>578.85</ele>
        <time>2021-11-20T13:56:40Z</time>
      </trkpt>
      <trkpt lat="45.45489" lon="4.13369">
        <ele>575.97</ele>
        <time>2021-11-20T13:56:57Z</time>
      </trkpt>
      <trkpt lat="45.45507" lon="4.134">
        <ele>574.53</ele>
        <time>2021-11-20T13:57:15Z</time>
      </trkpt>
      <trkpt lat="45.45518" lon="4.13432">
        <ele>574.53</ele>
        <time>2021-11-20T13:57:32Z</time>
      </trkpt>
      <trkpt lat="45.45531" lon="4.13457">
        <ele>574.53</ele>
        <time>2021-11-20T13:57:46Z</time>
      </trkpt>
      <trkpt lat="45.45532" lon="4.13459">
        <ele>574.53</ele>
        <time>2021-11-20T13:57:47Z</time>
      </trkpt>
      <trkpt lat="45.45548" lon="4.13485">
        <ele>569.72</ele>
        <time>2021-11-20T13:58:04Z</time>
      </trkpt>
      <trkpt lat="45.45552" lon="4.13487">
        <ele>570.68</ele>
        <time>2021-11-20T13:58:07Z</time>
      </trkpt>
      <trkpt lat="45.45571" lon="4.13513">
        <ele>569.24</ele>
        <time>2021-11-20T13:58:25Z</time>
      </trkpt>
      <trkpt lat="45.45577" lon="4.13518">
        <ele>569.72</ele>
        <time>2021-11-20T13:58:40Z</time>
      </trkpt>
      <trkpt lat="45.45596" lon="4.13528">
        <ele>571.64</ele>
        <time>2021-11-20T13:58:55Z</time>
      </trkpt>
      <trkpt lat="45.45617" lon="4.13539">
        <ele>572.6</ele>
        <time>2021-11-20T13:59:10Z</time>
      </trkpt>
      <trkpt lat="45.45642" lon="4.13547">
        <ele>570.68</ele>
        <time>2021-11-20T13:59:27Z</time>
      </trkpt>
      <trkpt lat="45.45664" lon="4.13562">
        <ele>569.24</ele>
        <time>2021-11-20T13:59:44Z</time>
      </trkpt>
      <trkpt lat="45.45688" lon="4.13582">
        <ele>571.64</ele>
        <time>2021-11-20T14:00:00Z</time>
      </trkpt>
      <trkpt lat="45.45697" lon="4.13604">
        <ele>570.68</ele>
        <time>2021-11-20T14:00:11Z</time>
      </trkpt>
      <trkpt lat="45.45704" lon="4.13647">
        <ele>564.91</ele>
        <time>2021-11-20T14:00:30Z</time>
      </trkpt>
      <trkpt lat="45.4572" lon="4.13674">
        <ele>562.03</ele>
        <time>2021-11-20T14:00:46Z</time>
      </trkpt>
      <trkpt lat="45.45721" lon="4.13676">
        <ele>562.03</ele>
        <time>2021-11-20T14:00:47Z</time>
      </trkpt>
      <trkpt lat="45.45722" lon="4.13678">
        <ele>562.03</ele>
        <time>2021-11-20T14:00:48Z</time>
      </trkpt>
      <trkpt lat="45.45723" lon="4.1368">
        <ele>562.03</ele>
        <time>2021-11-20T14:00:49Z</time>
      </trkpt>
      <trkpt lat="45.45724" lon="4.13682">
        <ele>562.51</ele>
        <time>2021-11-20T14:00:50Z</time>
      </trkpt>
      <trkpt lat="45.45725" lon="4.13684">
        <ele>562.51</ele>
        <time>2021-11-20T14:00:51Z</time>
      </trkpt>
      <trkpt lat="45.45726" lon="4.13686">
        <ele>562.03</ele>
        <time>2021-11-20T14:00:52Z</time>
      </trkpt>
      <trkpt lat="45.45727" lon="4.13687">
        <ele>562.03</ele>
        <time>2021-11-20T14:00:53Z</time>
      </trkpt>
      <trkpt lat="45.45733" lon="4.13702">
        <ele>559.62</ele>
        <time>2021-11-20T14:01:03Z</time>
      </trkpt>
      <trkpt lat="45.45733" lon="4.13704">
        <ele>559.62</ele>
        <time>2021-11-20T14:01:04Z</time>
      </trkpt>
      <trkpt lat="45.45733" lon="4.13706">
        <ele>559.62</ele>
        <time>2021-11-20T14:01:05Z</time>
      </trkpt>
      <trkpt lat="45.45734" lon="4.13708">
        <ele>559.62</ele>
        <time>2021-11-20T14:01:06Z</time>
      </trkpt>
      <trkpt lat="45.45735" lon="4.1371">
        <ele>559.62</ele>
        <time>2021-11-20T14:01:07Z</time>
      </trkpt>
      <trkpt lat="45.45735" lon="4.13712">
        <ele>559.62</ele>
        <time>2021-11-20T14:01:08Z</time>
      </trkpt>
      <trkpt lat="45.45751" lon="4.13737">
        <ele>562.51</ele>
        <time>2021-11-20T14:01:24Z</time>
      </trkpt>
      <trkpt lat="45.45761" lon="4.13769">
        <ele>565.39</ele>
        <time>2021-11-20T14:01:38Z</time>
      </trkpt>
      <trkpt lat="45.45772" lon="4.13803">
        <ele>564.43</ele>
        <time>2021-11-20T14:01:54Z</time>
      </trkpt>
      <trkpt lat="45.4578" lon="4.13838">
        <ele>566.35</ele>
        <time>2021-11-20T14:02:10Z</time>
      </trkpt>
      <trkpt lat="45.45788" lon="4.13871">
        <ele>565.87</ele>
        <time>2021-11-20T14:02:26Z</time>
      </trkpt>
      <trkpt lat="45.45788" lon="4.13873">
        <ele>565.87</ele>
        <time>2021-11-20T14:02:27Z</time>
      </trkpt>
      <trkpt lat="45.45795" lon="4.13902">
        <ele>564.91</ele>
        <time>2021-11-20T14:02:43Z</time>
      </trkpt>
      <trkpt lat="45.45796" lon="4.13941">
        <ele>564.91</ele>
        <time>2021-11-20T14:03:00Z</time>
      </trkpt>
      <trkpt lat="45.45787" lon="4.13973">
        <ele>567.8</ele>
        <time>2021-11-20T14:03:17Z</time>
      </trkpt>
      <trkpt lat="45.45784" lon="4.14012">
        <ele>569.72</ele>
        <time>2021-11-20T14:03:36Z</time>
      </trkpt>
      <trkpt lat="45.45798" lon="4.14047">
        <ele>569.72</ele>
        <time>2021-11-20T14:03:55Z</time>
      </trkpt>
      <trkpt lat="45.45811" lon="4.1408">
        <ele>568.28</ele>
        <time>2021-11-20T14:04:13Z</time>
      </trkpt>
      <trkpt lat="45.45816" lon="4.14109">
        <ele>568.76</ele>
        <time>2021-11-20T14:04:27Z</time>
      </trkpt>
      <trkpt lat="45.45827" lon="4.14144">
        <ele>569.24</ele>
        <time>2021-11-20T14:04:44Z</time>
      </trkpt>
      <trkpt lat="45.45829" lon="4.1418">
        <ele>568.28</ele>
        <time>2021-11-20T14:05:01Z</time>
      </trkpt>
      <trkpt lat="45.4583" lon="4.14223">
        <ele>568.76</ele>
        <time>2021-11-20T14:05:21Z</time>
      </trkpt>
      <trkpt lat="45.4582" lon="4.14262">
        <ele>569.72</ele>
        <time>2021-11-20T14:05:40Z</time>
      </trkpt>
      <trkpt lat="45.45818" lon="4.14266">
        <ele>569.72</ele>
        <time>2021-11-20T14:05:42Z</time>
      </trkpt>
      <trkpt lat="45.45817" lon="4.14267">
        <ele>570.2</ele>
        <time>2021-11-20T14:05:43Z</time>
      </trkpt>
      <trkpt lat="45.45817" lon="4.14269">
        <ele>570.2</ele>
        <time>2021-11-20T14:05:44Z</time>
      </trkpt>
      <trkpt lat="45.45816" lon="4.14272">
        <ele>570.68</ele>
        <time>2021-11-20T14:05:45Z</time>
      </trkpt>
      <trkpt lat="45.45816" lon="4.14274">
        <ele>570.68</ele>
        <time>2021-11-20T14:05:46Z</time>
      </trkpt>
      <trkpt lat="45.45815" lon="4.14276">
        <ele>570.68</ele>
        <time>2021-11-20T14:05:47Z</time>
      </trkpt>
      <trkpt lat="45.45815" lon="4.14279">
        <ele>570.68</ele>
        <time>2021-11-20T14:05:48Z</time>
      </trkpt>
      <trkpt lat="45.45811" lon="4.14315">
        <ele>573.56</ele>
        <time>2021-11-20T14:06:04Z</time>
      </trkpt>
      <trkpt lat="45.45805" lon="4.14355">
        <ele>575.01</ele>
        <time>2021-11-20T14:06:23Z</time>
      </trkpt>
      <trkpt lat="45.458" lon="4.14398">
        <ele>578.37</ele>
        <time>2021-11-20T14:06:41Z</time>
      </trkpt>
      <trkpt lat="45.45797" lon="4.14437">
        <ele>580.29</ele>
        <time>2021-11-20T14:07:00Z</time>
      </trkpt>
      <trkpt lat="45.45792" lon="4.14455">
        <ele>581.73</ele>
        <time>2021-11-20T14:07:10Z</time>
      </trkpt>
      <trkpt lat="45.45777" lon="4.14474">
        <ele>584.62</ele>
        <time>2021-11-20T14:07:25Z</time>
      </trkpt>
      <trkpt lat="45.45776" lon="4.14476">
        <ele>584.62</ele>
        <time>2021-11-20T14:07:26Z</time>
      </trkpt>
      <trkpt lat="45.45784" lon="4.14503">
        <ele>586.54</ele>
        <time>2021-11-20T14:07:41Z</time>
      </trkpt>
      <trkpt lat="45.45799" lon="4.14518">
        <ele>590.39</ele>
        <time>2021-11-20T14:07:58Z</time>
      </trkpt>
      <trkpt lat="45.458" lon="4.14517">
        <ele>590.87</ele>
        <time>2021-11-20T14:07:59Z</time>
      </trkpt>
      <trkpt lat="45.45801" lon="4.14515">
        <ele>590.87</ele>
        <time>2021-11-20T14:08:00Z</time>
      </trkpt>
      <trkpt lat="45.45814" lon="4.14499">
        <ele>594.23</ele>
        <time>2021-11-20T14:08:12Z</time>
      </trkpt>
      <trkpt lat="45.45815" lon="4.145">
        <ele>594.71</ele>
        <time>2021-11-20T14:08:13Z</time>
      </trkpt>
      <trkpt lat="45.45817" lon="4.14505">
        <ele>595.19</ele>
        <time>2021-11-20T14:08:16Z</time>
      </trkpt>
      <trkpt lat="45.45817" lon="4.14508">
        <ele>595.67</ele>
        <time>2021-11-20T14:08:17Z</time>
      </trkpt>
      <trkpt lat="45.45805" lon="4.14537">
        <ele>597.12</ele>
        <time>2021-11-20T14:08:33Z</time>
      </trkpt>
      <trkpt lat="45.45802" lon="4.14547">
        <ele>597.6</ele>
        <time>2021-11-20T14:08:38Z</time>
      </trkpt>
      <trkpt lat="45.45802" lon="4.14549">
        <ele>597.6</ele>
        <time>2021-11-20T14:08:39Z</time>
      </trkpt>
      <trkpt lat="45.45801" lon="4.14551">
        <ele>597.6</ele>
        <time>2021-11-20T14:08:40Z</time>
      </trkpt>
      <trkpt lat="45.458" lon="4.14553">
        <ele>597.6</ele>
        <time>2021-11-20T14:08:41Z</time>
      </trkpt>
      <trkpt lat="45.45799" lon="4.14556">
        <ele>597.6</ele>
        <time>2021-11-20T14:08:42Z</time>
      </trkpt>
      <trkpt lat="45.45798" lon="4.14558">
        <ele>597.6</ele>
        <time>2021-11-20T14:08:43Z</time>
      </trkpt>
      <trkpt lat="45.45783" lon="4.14591">
        <ele>596.15</ele>
        <time>2021-11-20T14:09:01Z</time>
      </trkpt>
      <trkpt lat="45.45767" lon="4.14628">
        <ele>598.08</ele>
        <time>2021-11-20T14:09:20Z</time>
      </trkpt>
      <trkpt lat="45.4575" lon="4.14665">
        <ele>600.96</ele>
        <time>2021-11-20T14:09:38Z</time>
      </trkpt>
      <trkpt lat="45.45749" lon="4.14668">
        <ele>601.44</ele>
        <time>2021-11-20T14:09:40Z</time>
      </trkpt>
      <trkpt lat="45.45749" lon="4.1467">
        <ele>601.44</ele>
        <time>2021-11-20T14:09:41Z</time>
      </trkpt>
      <trkpt lat="45.45749" lon="4.14672">
        <ele>601.44</ele>
        <time>2021-11-20T14:09:42Z</time>
      </trkpt>
      <trkpt lat="45.45748" lon="4.14674">
        <ele>601.92</ele>
        <time>2021-11-20T14:09:43Z</time>
      </trkpt>
      <trkpt lat="45.45747" lon="4.14675">
        <ele>601.92</ele>
        <time>2021-11-20T14:09:44Z</time>
      </trkpt>
      <trkpt lat="45.45731" lon="4.14708">
        <ele>600.96</ele>
        <time>2021-11-20T14:10:01Z</time>
      </trkpt>
      <trkpt lat="45.45727" lon="4.1472">
        <ele>600</ele>
        <time>2021-11-20T14:10:09Z</time>
      </trkpt>
      <trkpt lat="45.45727" lon="4.14722">
        <ele>600.48</ele>
        <time>2021-11-20T14:10:10Z</time>
      </trkpt>
      <trkpt lat="45.45727" lon="4.14725">
        <ele>600</ele>
        <time>2021-11-20T14:10:11Z</time>
      </trkpt>
      <trkpt lat="45.45727" lon="4.14727">
        <ele>600</ele>
        <time>2021-11-20T14:10:12Z</time>
      </trkpt>
      <trkpt lat="45.45727" lon="4.14729">
        <ele>600</ele>
        <time>2021-11-20T14:10:13Z</time>
      </trkpt>
      <trkpt lat="45.45726" lon="4.14731">
        <ele>600</ele>
        <time>2021-11-20T14:10:14Z</time>
      </trkpt>
      <trkpt lat="45.45726" lon="4.14733">
        <ele>600</ele>
        <time>2021-11-20T14:10:15Z</time>
      </trkpt>
      <trkpt lat="45.45718" lon="4.14773">
        <ele>600</ele>
        <time>2021-11-20T14:10:34Z</time>
      </trkpt>
      <trkpt lat="45.45715" lon="4.14813">
        <ele>600.48</ele>
        <time>2021-11-20T14:10:52Z</time>
      </trkpt>
      <trkpt lat="45.45714" lon="4.14861">
        <ele>601.92</ele>
        <time>2021-11-20T14:11:11Z</time>
      </trkpt>
      <trkpt lat="45.45721" lon="4.14911">
        <ele>599.52</ele>
        <time>2021-11-20T14:11:32Z</time>
      </trkpt>
      <trkpt lat="45.45729" lon="4.14944">
        <ele>597.6</ele>
        <time>2021-11-20T14:11:47Z</time>
      </trkpt>
      <trkpt lat="45.45743" lon="4.14984">
        <ele>594.23</ele>
        <time>2021-11-20T14:12:05Z</time>
      </trkpt>
      <trkpt lat="45.45756" lon="4.15026">
        <ele>592.31</ele>
        <time>2021-11-20T14:12:26Z</time>
      </trkpt>
      <trkpt lat="45.45774" lon="4.15064">
        <ele>591.83</ele>
        <time>2021-11-20T14:12:46Z</time>
      </trkpt>
      <trkpt lat="45.45795" lon="4.15095">
        <ele>590.39</ele>
        <time>2021-11-20T14:13:05Z</time>
      </trkpt>
      <trkpt lat="45.45816" lon="4.1512">
        <ele>592.31</ele>
        <time>2021-11-20T14:13:23Z</time>
      </trkpt>
      <trkpt lat="45.4585" lon="4.15143">
        <ele>594.71</ele>
        <time>2021-11-20T14:13:43Z</time>
      </trkpt>
      <trkpt lat="45.45878" lon="4.15157">
        <ele>594.71</ele>
        <time>2021-11-20T14:13:59Z</time>
      </trkpt>
      <trkpt lat="45.45907" lon="4.15173">
        <ele>595.19</ele>
        <time>2021-11-20T14:14:17Z</time>
      </trkpt>
      <trkpt lat="45.45933" lon="4.15186">
        <ele>597.12</ele>
        <time>2021-11-20T14:14:32Z</time>
      </trkpt>
      <trkpt lat="45.45961" lon="4.15199">
        <ele>597.6</ele>
        <time>2021-11-20T14:14:49Z</time>
      </trkpt>
      <trkpt lat="45.45985" lon="4.15213">
        <ele>597.6</ele>
        <time>2021-11-20T14:15:06Z</time>
      </trkpt>
      <trkpt lat="45.4601" lon="4.15223">
        <ele>594.71</ele>
        <time>2021-11-20T14:15:23Z</time>
      </trkpt>
      <trkpt lat="45.46021" lon="4.15228">
        <ele>593.75</ele>
        <time>2021-11-20T14:15:38Z</time>
      </trkpt>
      <trkpt lat="45.46022" lon="4.1523">
        <ele>596.15</ele>
        <time>2021-11-20T14:15:56Z</time>
      </trkpt>
      <trkpt lat="45.4602" lon="4.15229">
        <ele>598.08</ele>
        <time>2021-11-20T14:16:21Z</time>
      </trkpt>
    </trkseg>
  </trk>
</gpx>